PWSweather.com
Personal Weather Stations
Station Observations
KD5LEN
Ktxnorth1, North Richland Hills, TX 76180

Ktxnorth1North Richland Hills, TX 76180

Lat: 32.885294, Lon: -97.236048

Elevation: 694

Station Type: Vantage Pro 2

http://www.atzer0.net/VWS/root/index.htm

High Low Average
Temperature 69.3°F20.7°C 44.1°F6.7°C 51.7°F10.9°C
Dew Point 66.4°F19.1°C 41.1°F5.1°C 49.1°F9.5°C
Winds 22.0 mph 35.4 kmh Calm Calm 4.0 mph SE6.4 kmh SE
Wind Gusts 26.0 mph41.8 kmh -- 8.0 mph12.9 kmh
Humidity 92% 89% 90%
Pressure 30.17 in1021.7 mb 29.72 in1006.4 mb -
Precipitation 0.00 in0.0 mm - -
Hour Temp Dew Point Humidity Winds Wind Gusts Pressure Precip Precip Rate Daily Precip Total
12:00 AM 44.3°F6.8°C 41.3°F5.2°C 89% 1.0 mph NNE1.6 kmh NNE 9.0 mph14.5 kmh 30.17 in1021.7 mb 0.00 in0.0 mm 0.00 in0.0 mm 0.00 in0.0 mm
12:02 AM 44.3°F6.8°C 41.3°F5.2°C 89% 5.0 mph ENE8.0 kmh ENE 9.0 mph14.5 kmh 30.17 in1021.7 mb 0.00 in0.0 mm 0.00 in0.0 mm 0.00 in0.0 mm
12:04 AM 44.3°F6.8°C 41.3°F5.2°C 89% 5.0 mph NE8.0 kmh NE 7.0 mph11.3 kmh 30.17 in1021.7 mb 0.00 in0.0 mm 0.00 in0.0 mm 0.00 in0.0 mm
12:06 AM 44.3°F6.8°C 41.3°F5.2°C 89% 4.0 mph NE6.4 kmh NE 7.0 mph11.3 kmh 30.17 in1021.7 mb 0.00 in0.0 mm 0.00 in0.0 mm 0.00 in0.0 mm
12:08 AM 44.2°F6.8°C 41.2°F5.1°C 89% 4.0 mph ENE6.4 kmh ENE 7.0 mph11.3 kmh 30.17 in1021.7 mb 0.00 in0.0 mm 0.00 in0.0 mm 0.00 in0.0 mm
12:10 AM 44.2°F6.8°C 41.2°F5.1°C 89% 7.0 mph NE11.3 kmh NE 7.0 mph11.3 kmh 30.17 in1021.7 mb 0.00 in0.0 mm 0.00 in0.0 mm 0.00 in0.0 mm
12:12 AM 44.1°F6.7°C 41.1°F5.1°C 89% 2.0 mph NNE3.2 kmh NNE 8.0 mph12.9 kmh 30.17 in1021.7 mb 0.00 in0.0 mm 0.00 in0.0 mm 0.00 in0.0 mm
12:14 AM 44.1°F6.7°C 41.1°F5.1°C 89% 3.0 mph NE4.8 kmh NE 8.0 mph12.9 kmh 30.17 in1021.7 mb 0.00 in0.0 mm 0.00 in0.0 mm 0.00 in0.0 mm
12:16 AM 44.2°F6.8°C 41.2°F5.1°C 89% 4.0 mph NE6.4 kmh NE 8.0 mph12.9 kmh 30.17 in1021.7 mb 0.00 in0.0 mm 0.00 in0.0 mm 0.00 in0.0 mm
12:18 AM 44.2°F6.8°C 41.2°F5.1°C 89% 3.0 mph NE4.8 kmh NE 8.0 mph12.9 kmh 30.17 in1021.7 mb 0.00 in0.0 mm 0.00 in0.0 mm 0.00 in0.0 mm
12:20 AM 44.1°F6.7°C 41.1°F5.1°C 89% 3.0 mph NE4.8 kmh NE 8.0 mph12.9 kmh 30.17 in1021.7 mb 0.01 in0.3 mm 0.30 in7.6 mm 0.01 in0.3 mm
12:22 AM 44.2°F6.8°C 41.2°F5.1°C 89% 2.0 mph NE3.2 kmh NE 8.0 mph12.9 kmh 30.17 in1021.7 mb 0.01 in0.3 mm 0.00 in0.0 mm 0.01 in0.3 mm
12:24 AM 44.2°F6.8°C 41.2°F5.1°C 89% 1.0 mph NE1.6 kmh NE 8.0 mph12.9 kmh 30.17 in1021.7 mb 0.01 in0.3 mm 0.00 in0.0 mm 0.01 in0.3 mm
12:26 AM 44.2°F6.8°C 41.2°F5.1°C 89% 3.0 mph NNE4.8 kmh NNE 8.0 mph12.9 kmh 30.17 in1021.7 mb 0.01 in0.3 mm 0.00 in0.0 mm 0.01 in0.3 mm
12:28 AM 44.2°F6.8°C 41.2°F5.1°C 89% 1.0 mph NE1.6 kmh NE 8.0 mph12.9 kmh 30.16 in1021.3 mb 0.01 in0.3 mm 0.00 in0.0 mm 0.01 in0.3 mm
12:29 AM 44.2°F6.8°C 41.2°F5.1°C 89% 6.0 mph NE9.7 kmh NE 8.0 mph12.9 kmh 30.16 in1021.3 mb 0.01 in0.3 mm 0.00 in0.0 mm 0.01 in0.3 mm
12:32 AM 44.2°F6.8°C 41.2°F5.1°C 89% 3.0 mph NE4.8 kmh NE 8.0 mph12.9 kmh 30.16 in1021.3 mb 0.01 in0.3 mm 0.00 in0.0 mm 0.01 in0.3 mm
12:34 AM 44.2°F6.8°C 41.2°F5.1°C 89% 3.0 mph ENE4.8 kmh ENE 4.0 mph6.4 kmh 30.16 in1021.3 mb 0.01 in0.3 mm 0.00 in0.0 mm 0.01 in0.3 mm
12:36 AM 44.2°F6.8°C 41.2°F5.1°C 89% 6.0 mph NE9.7 kmh NE 6.0 mph9.7 kmh 30.16 in1021.3 mb 0.01 in0.3 mm 0.00 in0.0 mm 0.01 in0.3 mm
12:38 AM 44.2°F6.8°C 41.2°F5.1°C 89% 3.0 mph ENE4.8 kmh ENE 6.0 mph9.7 kmh 30.16 in1021.3 mb 0.01 in0.3 mm 0.00 in0.0 mm 0.01 in0.3 mm
12:40 AM 44.2°F6.8°C 41.2°F5.1°C 89% 3.0 mph ENE4.8 kmh ENE 6.0 mph9.7 kmh 30.16 in1021.3 mb 0.01 in0.3 mm 0.00 in0.0 mm 0.01 in0.3 mm
12:42 AM 44.2°F6.8°C 41.2°F5.1°C 89% 7.0 mph ENE11.3 kmh ENE 7.0 mph11.3 kmh 30.16 in1021.3 mb 0.01 in0.3 mm 0.00 in0.0 mm 0.01 in0.3 mm
12:44 AM 44.2°F6.8°C 41.2°F5.1°C 89% 7.0 mph ENE11.3 kmh ENE 9.0 mph14.5 kmh 30.15 in1021.0 mb 0.01 in0.3 mm 0.00 in0.0 mm 0.01 in0.3 mm
12:46 AM 44.2°F6.8°C 41.2°F5.1°C 89% 7.0 mph NE11.3 kmh NE 9.0 mph14.5 kmh 30.16 in1021.3 mb 0.01 in0.3 mm 0.00 in0.0 mm 0.01 in0.3 mm
12:48 AM 44.2°F6.8°C 41.2°F5.1°C 89% 2.0 mph ENE3.2 kmh ENE 9.0 mph14.5 kmh 30.15 in1021.0 mb 0.01 in0.3 mm 0.00 in0.0 mm 0.01 in0.3 mm
12:50 AM 44.2°F6.8°C 41.2°F5.1°C 89% 3.0 mph E4.8 kmh E 9.0 mph14.5 kmh 30.15 in1021.0 mb 0.01 in0.3 mm 0.00 in0.0 mm 0.01 in0.3 mm
12:52 AM 44.2°F6.8°C 41.2°F5.1°C 89% 4.0 mph E6.4 kmh E 9.0 mph14.5 kmh 30.15 in1021.0 mb 0.01 in0.3 mm 0.00 in0.0 mm 0.01 in0.3 mm
12:54 AM 44.2°F6.8°C 41.2°F5.1°C 89% 1.0 mph E1.6 kmh E 9.0 mph14.5 kmh 30.15 in1021.0 mb 0.01 in0.3 mm 0.00 in0.0 mm 0.01 in0.3 mm
12:56 AM 44.2°F6.8°C 41.2°F5.1°C 89% 4.0 mph E6.4 kmh E 9.0 mph14.5 kmh 30.15 in1021.0 mb 0.01 in0.3 mm 0.00 in0.0 mm 0.01 in0.3 mm
12:58 AM 44.2°F6.8°C 41.2°F5.1°C 89% 3.0 mph NE4.8 kmh NE 9.0 mph14.5 kmh 30.15 in1021.0 mb 0.01 in0.3 mm 0.00 in0.0 mm 0.01 in0.3 mm
01:00 AM 44.3°F6.8°C 41.3°F5.2°C 89% 4.0 mph ENE6.4 kmh ENE 9.0 mph14.5 kmh 30.15 in1021.0 mb 0.01 in0.3 mm 0.00 in0.0 mm 0.01 in0.3 mm
01:02 AM 44.3°F6.8°C 41.3°F5.2°C 89% 4.0 mph ENE6.4 kmh ENE 9.0 mph14.5 kmh 30.15 in1021.0 mb 0.01 in0.3 mm 0.00 in0.0 mm 0.01 in0.3 mm
01:04 AM 44.3°F6.8°C 41.3°F5.2°C 89% 7.0 mph NE11.3 kmh NE 9.0 mph14.5 kmh 30.14 in1020.7 mb 0.01 in0.3 mm 0.00 in0.0 mm 0.01 in0.3 mm
01:06 AM 44.3°F6.8°C 41.3°F5.2°C 89% 5.0 mph NE8.0 kmh NE 9.0 mph14.5 kmh 30.15 in1021.0 mb 0.01 in0.3 mm 0.00 in0.0 mm 0.01 in0.3 mm
01:08 AM 44.2°F6.8°C 41.2°F5.1°C 89% 5.0 mph E8.0 kmh E 9.0 mph14.5 kmh 30.15 in1021.0 mb 0.01 in0.3 mm 0.00 in0.0 mm 0.01 in0.3 mm
01:10 AM 44.2°F6.8°C 41.2°F5.1°C 89% 3.0 mph ENE4.8 kmh ENE 9.0 mph14.5 kmh 30.14 in1020.7 mb 0.01 in0.3 mm 0.00 in0.0 mm 0.01 in0.3 mm
01:12 AM 44.2°F6.8°C 41.2°F5.1°C 89% 4.0 mph ENE6.4 kmh ENE 9.0 mph14.5 kmh 30.14 in1020.7 mb 0.01 in0.3 mm 0.00 in0.0 mm 0.01 in0.3 mm
01:14 AM 44.3°F6.8°C 41.3°F5.2°C 89% 4.0 mph E6.4 kmh E 9.0 mph14.5 kmh 30.15 in1021.0 mb 0.01 in0.3 mm 0.00 in0.0 mm 0.01 in0.3 mm
01:16 AM 44.2°F6.8°C 41.2°F5.1°C 89% 3.0 mph ENE4.8 kmh ENE 9.0 mph14.5 kmh 30.15 in1021.0 mb 0.01 in0.3 mm 0.00 in0.0 mm 0.01 in0.3 mm
01:18 AM 44.3°F6.8°C 41.3°F5.2°C 89% 2.0 mph ENE3.2 kmh ENE 9.0 mph14.5 kmh 30.15 in1021.0 mb 0.01 in0.3 mm 0.00 in0.0 mm 0.01 in0.3 mm
01:20 AM 44.3°F6.8°C 41.3°F5.2°C 89% 1.0 mph E1.6 kmh E 9.0 mph14.5 kmh 30.15 in1021.0 mb 0.01 in0.3 mm 0.00 in0.0 mm 0.01 in0.3 mm
01:22 AM 44.3°F6.8°C 41.3°F5.2°C 89% 3.0 mph NE4.8 kmh NE 9.0 mph14.5 kmh 30.15 in1021.0 mb 0.01 in0.3 mm 0.00 in0.0 mm 0.01 in0.3 mm
01:24 AM 44.2°F6.8°C 41.2°F5.1°C 89% 6.0 mph ENE9.7 kmh ENE 9.0 mph14.5 kmh 30.15 in1021.0 mb 0.01 in0.3 mm 0.00 in0.0 mm 0.01 in0.3 mm
01:26 AM 44.2°F6.8°C 41.2°F5.1°C 89% 5.0 mph NE8.0 kmh NE 9.0 mph14.5 kmh 30.15 in1021.0 mb 0.01 in0.3 mm 0.00 in0.0 mm 0.01 in0.3 mm
01:28 AM 44.3°F6.8°C 41.3°F5.2°C 89% 2.0 mph ENE3.2 kmh ENE 9.0 mph14.5 kmh 30.15 in1021.0 mb 0.01 in0.3 mm 0.00 in0.0 mm 0.01 in0.3 mm
01:30 AM 44.2°F6.8°C 41.2°F5.1°C 89% 7.0 mph E11.3 kmh E 9.0 mph14.5 kmh 30.15 in1021.0 mb 0.01 in0.3 mm 0.00 in0.0 mm 0.01 in0.3 mm
01:32 AM 44.2°F6.8°C 41.2°F5.1°C 89% 2.0 mph NE3.2 kmh NE 9.0 mph14.5 kmh 30.15 in1021.0 mb 0.01 in0.3 mm 0.00 in0.0 mm 0.01 in0.3 mm
01:34 AM 44.2°F6.8°C 41.2°F5.1°C 89% 3.0 mph ENE4.8 kmh ENE 5.0 mph8.0 kmh 30.15 in1021.0 mb 0.00 in0.0 mm 0.00 in0.0 mm 0.01 in0.3 mm
01:36 AM 44.2°F6.8°C 41.2°F5.1°C 89% 1.0 mph ENE1.6 kmh ENE 5.0 mph8.0 kmh 30.15 in1021.0 mb 0.00 in0.0 mm 0.00 in0.0 mm 0.01 in0.3 mm
01:38 AM 44.2°F6.8°C 41.2°F5.1°C 89% 3.0 mph ENE4.8 kmh ENE 6.0 mph9.7 kmh 30.15 in1021.0 mb 0.00 in0.0 mm 0.00 in0.0 mm 0.01 in0.3 mm
01:40 AM 44.2°F6.8°C 41.2°F5.1°C 89% 3.0 mph ENE4.8 kmh ENE 6.0 mph9.7 kmh 30.15 in1021.0 mb 0.00 in0.0 mm 0.00 in0.0 mm 0.01 in0.3 mm
01:42 AM 44.2°F6.8°C 41.2°F5.1°C 89% 4.0 mph NE6.4 kmh NE 6.0 mph9.7 kmh 30.15 in1021.0 mb 0.00 in0.0 mm 0.00 in0.0 mm 0.01 in0.3 mm
01:44 AM 44.2°F6.8°C 41.2°F5.1°C 89% 5.0 mph E8.0 kmh E 6.0 mph9.7 kmh 30.15 in1021.0 mb 0.00 in0.0 mm 0.00 in0.0 mm 0.01 in0.3 mm
01:46 AM 44.2°F6.8°C 41.2°F5.1°C 89% 4.0 mph NE6.4 kmh NE 6.0 mph9.7 kmh 30.15 in1021.0 mb 0.00 in0.0 mm 0.00 in0.0 mm 0.01 in0.3 mm
01:48 AM 44.2°F6.8°C 41.2°F5.1°C 89% 3.0 mph NE4.8 kmh NE 6.0 mph9.7 kmh 30.15 in1021.0 mb 0.00 in0.0 mm 0.00 in0.0 mm 0.01 in0.3 mm
01:50 AM 44.3°F6.8°C 41.3°F5.2°C 89% 2.0 mph E3.2 kmh E 6.0 mph9.7 kmh 30.15 in1021.0 mb 0.00 in0.0 mm 0.00 in0.0 mm 0.01 in0.3 mm
01:52 AM 44.3°F6.8°C 41.3°F5.2°C 89% 2.0 mph ENE3.2 kmh ENE 6.0 mph9.7 kmh 30.15 in1021.0 mb 0.00 in0.0 mm 0.00 in0.0 mm 0.01 in0.3 mm
01:54 AM 44.3°F6.8°C 41.3°F5.2°C 89% 4.0 mph ENE6.4 kmh ENE 6.0 mph9.7 kmh 30.15 in1021.0 mb 0.00 in0.0 mm 0.00 in0.0 mm 0.01 in0.3 mm
01:56 AM 44.3°F6.8°C 41.3°F5.2°C 89% 4.0 mph ENE6.4 kmh ENE 6.0 mph9.7 kmh 30.15 in1021.0 mb 0.00 in0.0 mm 0.00 in0.0 mm 0.01 in0.3 mm
01:58 AM 44.3°F6.8°C 41.3°F5.2°C 89% Calm Calm 6.0 mph9.7 kmh 30.15 in1021.0 mb 0.00 in0.0 mm 0.00 in0.0 mm 0.01 in0.3 mm
02:00 AM 44.3°F6.8°C 41.3°F5.2°C 89% 3.0 mph E4.8 kmh E 6.0 mph9.7 kmh 30.16 in1021.3 mb 0.00 in0.0 mm 0.00 in0.0 mm 0.01 in0.3 mm
02:02 AM 44.3°F6.8°C 41.3°F5.2°C 89% 2.0 mph ENE3.2 kmh ENE 6.0 mph9.7 kmh 30.15 in1021.0 mb 0.00 in0.0 mm 0.00 in0.0 mm 0.01 in0.3 mm
02:04 AM 44.3°F6.8°C 41.3°F5.2°C 89% 2.0 mph ENE3.2 kmh ENE 3.0 mph4.8 kmh 30.16 in1021.3 mb 0.00 in0.0 mm 0.00 in0.0 mm 0.01 in0.3 mm
02:06 AM 44.3°F6.8°C 41.3°F5.2°C 89% 3.0 mph NE4.8 kmh NE 5.0 mph8.0 kmh 30.15 in1021.0 mb 0.00 in0.0 mm 0.00 in0.0 mm 0.01 in0.3 mm
02:08 AM 44.4°F6.9°C 41.4°F5.2°C 89% Calm Calm 5.0 mph8.0 kmh 30.15 in1021.0 mb 0.00 in0.0 mm 0.00 in0.0 mm 0.01 in0.3 mm
02:10 AM 44.3°F6.8°C 41.3°F5.2°C 89% 1.0 mph NE1.6 kmh NE 5.0 mph8.0 kmh 30.15 in1021.0 mb 0.00 in0.0 mm 0.00 in0.0 mm 0.01 in0.3 mm
02:12 AM 44.3°F6.8°C 41.3°F5.2°C 89% Calm Calm 5.0 mph8.0 kmh 30.15 in1021.0 mb 0.00 in0.0 mm 0.00 in0.0 mm 0.01 in0.3 mm
02:14 AM 44.4°F6.9°C 41.4°F5.2°C 89% 3.0 mph ENE4.8 kmh ENE 5.0 mph8.0 kmh 30.15 in1021.0 mb 0.00 in0.0 mm 0.00 in0.0 mm 0.01 in0.3 mm
02:16 AM 44.4°F6.9°C 41.4°F5.2°C 89% 1.0 mph ENE1.6 kmh ENE 5.0 mph8.0 kmh 30.15 in1021.0 mb 0.00 in0.0 mm 0.00 in0.0 mm 0.01 in0.3 mm
02:18 AM 44.4°F6.9°C 41.4°F5.2°C 89% 3.0 mph E4.8 kmh E 5.0 mph8.0 kmh 30.14 in1020.7 mb 0.00 in0.0 mm 0.00 in0.0 mm 0.01 in0.3 mm
02:20 AM 44.4°F6.9°C 41.4°F5.2°C 89% 5.0 mph ENE8.0 kmh ENE 7.0 mph11.3 kmh 30.14 in1020.7 mb 0.00 in0.0 mm 0.00 in0.0 mm 0.01 in0.3 mm
02:22 AM 44.4°F6.9°C 41.4°F5.2°C 89% 4.0 mph NE6.4 kmh NE 7.0 mph11.3 kmh 30.14 in1020.7 mb 0.00 in0.0 mm 0.00 in0.0 mm 0.01 in0.3 mm
02:24 AM 44.4°F6.9°C 41.4°F5.2°C 89% 2.0 mph ENE3.2 kmh ENE 7.0 mph11.3 kmh 30.14 in1020.7 mb 0.00 in0.0 mm 0.00 in0.0 mm 0.01 in0.3 mm
02:26 AM 44.4°F6.9°C 41.4°F5.2°C 89% 8.0 mph ENE12.9 kmh ENE 8.0 mph12.9 kmh 30.14 in1020.7 mb 0.00 in0.0 mm 0.00 in0.0 mm 0.01 in0.3 mm
02:27 AM 44.3°F6.8°C 41.3°F5.2°C 89% 4.0 mph NE6.4 kmh NE 8.0 mph12.9 kmh 30.14 in1020.7 mb 0.00 in0.0 mm 0.00 in0.0 mm 0.01 in0.3 mm
02:30 AM 44.3°F6.8°C 41.3°F5.2°C 89% Calm Calm 8.0 mph12.9 kmh 30.14 in1020.7 mb 0.00 in0.0 mm 0.00 in0.0 mm 0.01 in0.3 mm
02:31 AM 44.4°F6.9°C 41.4°F5.2°C 89% 2.0 mph ENE3.2 kmh ENE 8.0 mph12.9 kmh 30.14 in1020.7 mb 0.00 in0.0 mm 0.00 in0.0 mm 0.01 in0.3 mm
02:34 AM 44.4°F6.9°C 41.4°F5.2°C 89% Calm Calm 3.0 mph4.8 kmh 30.14 in1020.7 mb 0.00 in0.0 mm 0.00 in0.0 mm 0.01 in0.3 mm
02:36 AM 44.4°F6.9°C 41.4°F5.2°C 89% 1.0 mph ENE1.6 kmh ENE 3.0 mph4.8 kmh 30.14 in1020.7 mb 0.00 in0.0 mm 0.00 in0.0 mm 0.01 in0.3 mm
02:38 AM 44.4°F6.9°C 41.4°F5.2°C 89% 3.0 mph NE4.8 kmh NE 4.0 mph6.4 kmh 30.14 in1020.7 mb 0.00 in0.0 mm 0.00 in0.0 mm 0.01 in0.3 mm
02:40 AM 44.4°F6.9°C 41.4°F5.2°C 89% 4.0 mph NE6.4 kmh NE 5.0 mph8.0 kmh 30.14 in1020.7 mb 0.00 in0.0 mm 0.00 in0.0 mm 0.01 in0.3 mm
02:42 AM 44.5°F6.9°C 41.5°F5.3°C 89% 2.0 mph NE3.2 kmh NE 5.0 mph8.0 kmh 30.14 in1020.7 mb 0.00 in0.0 mm 0.00 in0.0 mm 0.01 in0.3 mm
02:44 AM 44.5°F6.9°C 41.5°F5.3°C 89% 3.0 mph NE4.8 kmh NE 5.0 mph8.0 kmh 30.13 in1020.3 mb 0.00 in0.0 mm 0.00 in0.0 mm 0.01 in0.3 mm
02:46 AM 44.5°F6.9°C 41.5°F5.3°C 89% 3.0 mph ENE4.8 kmh ENE 6.0 mph9.7 kmh 30.14 in1020.7 mb 0.00 in0.0 mm 0.00 in0.0 mm 0.01 in0.3 mm
02:48 AM 44.5°F6.9°C 41.5°F5.3°C 89% Calm Calm 6.0 mph9.7 kmh 30.14 in1020.7 mb 0.00 in0.0 mm 0.00 in0.0 mm 0.01 in0.3 mm
02:50 AM 44.5°F6.9°C 41.5°F5.3°C 89% Calm Calm 6.0 mph9.7 kmh 30.14 in1020.7 mb 0.00 in0.0 mm 0.00 in0.0 mm 0.01 in0.3 mm
02:52 AM 44.5°F6.9°C 41.5°F5.3°C 89% 1.0 mph ENE1.6 kmh ENE 6.0 mph9.7 kmh 30.14 in1020.7 mb 0.00 in0.0 mm 0.00 in0.0 mm 0.01 in0.3 mm
02:54 AM 44.5°F6.9°C 41.5°F5.3°C 89% 2.0 mph ENE3.2 kmh ENE 6.0 mph9.7 kmh 30.14 in1020.7 mb 0.00 in0.0 mm 0.00 in0.0 mm 0.01 in0.3 mm
02:56 AM 44.5°F6.9°C 41.5°F5.3°C 89% Calm Calm 6.0 mph9.7 kmh 30.13 in1020.3 mb 0.00 in0.0 mm 0.00 in0.0 mm 0.01 in0.3 mm
02:58 AM 44.5°F6.9°C 41.5°F5.3°C 89% 2.0 mph ENE3.2 kmh ENE 6.0 mph9.7 kmh 30.14 in1020.7 mb 0.00 in0.0 mm 0.00 in0.0 mm 0.01 in0.3 mm
03:00 AM 44.5°F6.9°C 41.5°F5.3°C 89% 4.0 mph ENE6.4 kmh ENE 6.0 mph9.7 kmh 30.14 in1020.7 mb 0.00 in0.0 mm 0.00 in0.0 mm 0.01 in0.3 mm
03:02 AM 44.5°F6.9°C 41.5°F5.3°C 89% 5.0 mph NE8.0 kmh NE 6.0 mph9.7 kmh 30.13 in1020.3 mb 0.00 in0.0 mm 0.00 in0.0 mm 0.01 in0.3 mm
03:04 AM 44.5°F6.9°C 41.5°F5.3°C 89% 4.0 mph NE6.4 kmh NE 4.0 mph6.4 kmh 30.13 in1020.3 mb 0.00 in0.0 mm 0.00 in0.0 mm 0.01 in0.3 mm
03:06 AM 44.5°F6.9°C 41.5°F5.3°C 89% 1.0 mph NE1.6 kmh NE 4.0 mph6.4 kmh 30.13 in1020.3 mb 0.00 in0.0 mm 0.00 in0.0 mm 0.01 in0.3 mm
03:08 AM 44.5°F6.9°C 41.5°F5.3°C 89% 2.0 mph NE3.2 kmh NE 5.0 mph8.0 kmh 30.13 in1020.3 mb 0.00 in0.0 mm 0.00 in0.0 mm 0.01 in0.3 mm
03:10 AM 44.4°F6.9°C 41.4°F5.2°C 89% 1.0 mph NE1.6 kmh NE 5.0 mph8.0 kmh 30.14 in1020.7 mb 0.00 in0.0 mm 0.00 in0.0 mm 0.01 in0.3 mm
03:12 AM 44.4°F6.9°C 41.4°F5.2°C 89% 2.0 mph ENE3.2 kmh ENE 5.0 mph8.0 kmh 30.14 in1020.7 mb 0.00 in0.0 mm 0.00 in0.0 mm 0.01 in0.3 mm
03:14 AM 44.5°F6.9°C 41.5°F5.3°C 89% 1.0 mph ENE1.6 kmh ENE 5.0 mph8.0 kmh 30.13 in1020.3 mb 0.00 in0.0 mm 0.00 in0.0 mm 0.01 in0.3 mm
03:16 AM 44.5°F6.9°C 41.5°F5.3°C 89% 2.0 mph ENE3.2 kmh ENE 5.0 mph8.0 kmh 30.14 in1020.7 mb 0.00 in0.0 mm 0.00 in0.0 mm 0.01 in0.3 mm
03:18 AM 44.5°F6.9°C 41.5°F5.3°C 89% 4.0 mph ENE6.4 kmh ENE 5.0 mph8.0 kmh 30.13 in1020.3 mb 0.00 in0.0 mm 0.00 in0.0 mm 0.01 in0.3 mm
03:20 AM 44.5°F6.9°C 41.5°F5.3°C 89% 1.0 mph ENE1.6 kmh ENE 5.0 mph8.0 kmh 30.14 in1020.7 mb 0.00 in0.0 mm 0.00 in0.0 mm 0.01 in0.3 mm
03:22 AM 44.5°F6.9°C 41.5°F5.3°C 89% 2.0 mph ENE3.2 kmh ENE 5.0 mph8.0 kmh 30.14 in1020.7 mb 0.00 in0.0 mm 0.00 in0.0 mm 0.01 in0.3 mm
03:24 AM 44.5°F6.9°C 41.5°F5.3°C 89% 1.0 mph NE1.6 kmh NE 5.0 mph8.0 kmh 30.14 in1020.7 mb 0.00 in0.0 mm 0.00 in0.0 mm 0.01 in0.3 mm
03:26 AM 44.5°F6.9°C 41.5°F5.3°C 89% 3.0 mph NE4.8 kmh NE 5.0 mph8.0 kmh 30.14 in1020.7 mb 0.00 in0.0 mm 0.00 in0.0 mm 0.01 in0.3 mm
03:28 AM 44.5°F6.9°C 41.5°F5.3°C 89% Calm Calm 5.0 mph8.0 kmh 30.14 in1020.7 mb 0.00 in0.0 mm 0.00 in0.0 mm 0.01 in0.3 mm
03:30 AM 44.6°F7.0°C 41.6°F5.3°C 89% 4.0 mph NE6.4 kmh NE 5.0 mph8.0 kmh 30.13 in1020.3 mb 0.00 in0.0 mm 0.00 in0.0 mm 0.01 in0.3 mm
03:32 AM 44.5°F6.9°C 41.5°F5.3°C 89% 3.0 mph ENE4.8 kmh ENE 5.0 mph8.0 kmh 30.13 in1020.3 mb 0.00 in0.0 mm 0.00 in0.0 mm 0.01 in0.3 mm
03:34 AM 44.5°F6.9°C 41.5°F5.3°C 89% 4.0 mph E6.4 kmh E 6.0 mph9.7 kmh 30.13 in1020.3 mb 0.00 in0.0 mm 0.00 in0.0 mm 0.01 in0.3 mm
03:36 AM 44.5°F6.9°C 41.5°F5.3°C 89% 3.0 mph E4.8 kmh E 6.0 mph9.7 kmh 30.13 in1020.3 mb 0.00 in0.0 mm 0.00 in0.0 mm 0.01 in0.3 mm
03:38 AM 44.5°F6.9°C 41.5°F5.3°C 89% 6.0 mph NE9.7 kmh NE 6.0 mph9.7 kmh 30.13 in1020.3 mb 0.00 in0.0 mm 0.00 in0.0 mm 0.01 in0.3 mm
03:40 AM 44.5°F6.9°C 41.5°F5.3°C 89% 1.0 mph NE1.6 kmh NE 6.0 mph9.7 kmh 30.13 in1020.3 mb 0.00 in0.0 mm 0.00 in0.0 mm 0.01 in0.3 mm
03:42 AM 44.5°F6.9°C 41.5°F5.3°C 89% 2.0 mph NE3.2 kmh NE 6.0 mph9.7 kmh 30.13 in1020.3 mb 0.00 in0.0 mm 0.00 in0.0 mm 0.01 in0.3 mm
03:44 AM 44.6°F7.0°C 41.6°F5.3°C 89% 2.0 mph NE3.2 kmh NE 6.0 mph9.7 kmh 30.12 in1020.0 mb 0.00 in0.0 mm 0.00 in0.0 mm 0.01 in0.3 mm
03:46 AM 44.6°F7.0°C 41.6°F5.3°C 89% 2.0 mph NE3.2 kmh NE 6.0 mph9.7 kmh 30.13 in1020.3 mb 0.00 in0.0 mm 0.00 in0.0 mm 0.01 in0.3 mm
03:48 AM 44.6°F7.0°C 41.6°F5.3°C 89% 2.0 mph ENE3.2 kmh ENE 6.0 mph9.7 kmh 30.13 in1020.3 mb 0.00 in0.0 mm 0.00 in0.0 mm 0.01 in0.3 mm
03:50 AM 44.6°F7.0°C 41.6°F5.3°C 89% 2.0 mph NE3.2 kmh NE 6.0 mph9.7 kmh 30.13 in1020.3 mb 0.00 in0.0 mm 0.00 in0.0 mm 0.01 in0.3 mm
03:52 AM 44.6°F7.0°C 41.6°F5.3°C 89% 1.0 mph NE1.6 kmh NE 6.0 mph9.7 kmh 30.13 in1020.3 mb 0.00 in0.0 mm 0.00 in0.0 mm 0.01 in0.3 mm
03:54 AM 44.6°F7.0°C 41.6°F5.3°C 89% 3.0 mph ENE4.8 kmh ENE 6.0 mph9.7 kmh 30.13 in1020.3 mb 0.00 in0.0 mm 0.00 in0.0 mm 0.01 in0.3 mm
03:56 AM 44.6°F7.0°C 41.6°F5.3°C 89% 3.0 mph ENE4.8 kmh ENE 6.0 mph9.7 kmh 30.13 in1020.3 mb 0.00 in0.0 mm 0.00 in0.0 mm 0.01 in0.3 mm
03:58 AM 44.6°F7.0°C 41.6°F5.3°C 89% 3.0 mph E4.8 kmh E 6.0 mph9.7 kmh 30.13 in1020.3 mb 0.00 in0.0 mm 0.00 in0.0 mm 0.01 in0.3 mm
04:00 AM 44.6°F7.0°C 41.6°F5.3°C 89% 3.0 mph ENE4.8 kmh ENE 6.0 mph9.7 kmh 30.13 in1020.3 mb 0.00 in0.0 mm 0.00 in0.0 mm 0.01 in0.3 mm
04:02 AM 44.6°F7.0°C 41.6°F5.3°C 89% 1.0 mph ENE1.6 kmh ENE 6.0 mph9.7 kmh 30.13 in1020.3 mb 0.00 in0.0 mm 0.00 in0.0 mm 0.01 in0.3 mm
04:04 AM 44.6°F7.0°C 41.6°F5.3°C 89% 3.0 mph ENE4.8 kmh ENE 4.0 mph6.4 kmh 30.13 in1020.3 mb 0.00 in0.0 mm 0.00 in0.0 mm 0.01 in0.3 mm
04:06 AM 44.6°F7.0°C 41.6°F5.3°C 89% 4.0 mph ENE6.4 kmh ENE 4.0 mph6.4 kmh 30.12 in1020.0 mb 0.00 in0.0 mm 0.00 in0.0 mm 0.01 in0.3 mm
04:08 AM 44.6°F7.0°C 41.6°F5.3°C 89% 3.0 mph ENE4.8 kmh ENE 4.0 mph6.4 kmh 30.12 in1020.0 mb 0.00 in0.0 mm 0.00 in0.0 mm 0.01 in0.3 mm
04:10 AM 44.6°F7.0°C 41.6°F5.3°C 89% 3.0 mph ENE4.8 kmh ENE 4.0 mph6.4 kmh 30.12 in1020.0 mb 0.00 in0.0 mm 0.00 in0.0 mm 0.01 in0.3 mm
04:12 AM 44.7°F7.1°C 41.7°F5.4°C 89% 3.0 mph ENE4.8 kmh ENE 4.0 mph6.4 kmh 30.12 in1020.0 mb 0.00 in0.0 mm 0.00 in0.0 mm 0.01 in0.3 mm
04:14 AM 44.7°F7.1°C 41.7°F5.4°C 89% 3.0 mph NE4.8 kmh NE 4.0 mph6.4 kmh 30.12 in1020.0 mb 0.00 in0.0 mm 0.00 in0.0 mm 0.01 in0.3 mm
04:16 AM 44.7°F7.1°C 41.7°F5.4°C 89% 1.0 mph NNE1.6 kmh NNE 4.0 mph6.4 kmh 30.12 in1020.0 mb 0.00 in0.0 mm 0.00 in0.0 mm 0.01 in0.3 mm
04:18 AM 44.7°F7.1°C 41.7°F5.4°C 89% 2.0 mph NE3.2 kmh NE 4.0 mph6.4 kmh 30.12 in1020.0 mb 0.00 in0.0 mm 0.00 in0.0 mm 0.01 in0.3 mm
04:20 AM 44.8°F7.1°C 41.8°F5.4°C 89% 1.0 mph NE1.6 kmh NE 5.0 mph8.0 kmh 30.12 in1020.0 mb 0.00 in0.0 mm 0.00 in0.0 mm 0.01 in0.3 mm
04:22 AM 44.8°F7.1°C 41.8°F5.4°C 89% 1.0 mph NE1.6 kmh NE 5.0 mph8.0 kmh 30.12 in1020.0 mb 0.00 in0.0 mm 0.00 in0.0 mm 0.01 in0.3 mm
04:24 AM 44.7°F7.1°C 41.7°F5.4°C 89% Calm Calm 5.0 mph8.0 kmh 30.12 in1020.0 mb 0.00 in0.0 mm 0.00 in0.0 mm 0.01 in0.3 mm
04:26 AM 44.8°F7.1°C 41.8°F5.4°C 89% 2.0 mph NE3.2 kmh NE 5.0 mph8.0 kmh 30.12 in1020.0 mb 0.00 in0.0 mm 0.00 in0.0 mm 0.01 in0.3 mm
04:28 AM 44.8°F7.1°C 41.8°F5.4°C 89% Calm Calm 5.0 mph8.0 kmh 30.12 in1020.0 mb 0.00 in0.0 mm 0.00 in0.0 mm 0.01 in0.3 mm
04:30 AM 44.8°F7.1°C 41.8°F5.4°C 89% 2.0 mph NE3.2 kmh NE 5.0 mph8.0 kmh 30.12 in1020.0 mb 0.00 in0.0 mm 0.00 in0.0 mm 0.01 in0.3 mm
04:32 AM 44.8°F7.1°C 42.1°F5.6°C 90% 4.0 mph ENE6.4 kmh ENE 5.0 mph8.0 kmh 30.12 in1020.0 mb 0.00 in0.0 mm 0.00 in0.0 mm 0.01 in0.3 mm
04:34 AM 44.8°F7.1°C 41.8°F5.4°C 89% 4.0 mph ENE6.4 kmh ENE 5.0 mph8.0 kmh 30.12 in1020.0 mb 0.00 in0.0 mm 0.00 in0.0 mm 0.01 in0.3 mm
04:36 AM 44.8°F7.1°C 41.8°F5.4°C 89% 3.0 mph ENE4.8 kmh ENE 5.0 mph8.0 kmh 30.12 in1020.0 mb 0.00 in0.0 mm 0.00 in0.0 mm 0.01 in0.3 mm
04:38 AM 44.8°F7.1°C 41.8°F5.4°C 89% 2.0 mph ENE3.2 kmh ENE 5.0 mph8.0 kmh 30.12 in1020.0 mb 0.00 in0.0 mm 0.00 in0.0 mm 0.01 in0.3 mm
04:40 AM 44.8°F7.1°C 41.8°F5.4°C 89% 3.0 mph ENE4.8 kmh ENE 5.0 mph8.0 kmh 30.12 in1020.0 mb 0.00 in0.0 mm 0.00 in0.0 mm 0.01 in0.3 mm
04:42 AM 44.8°F7.1°C 42.1°F5.6°C 90% Calm Calm 5.0 mph8.0 kmh 30.13 in1020.3 mb 0.00 in0.0 mm 0.00 in0.0 mm 0.01 in0.3 mm
04:44 AM 44.8°F7.1°C 42.1°F5.6°C 90% 1.0 mph ENE1.6 kmh ENE 5.0 mph8.0 kmh 30.13 in1020.3 mb 0.00 in0.0 mm 0.00 in0.0 mm 0.01 in0.3 mm
04:46 AM 44.8°F7.1°C 42.1°F5.6°C 90% Calm Calm 5.0 mph8.0 kmh 30.12 in1020.0 mb 0.01 in0.3 mm 0.30 in7.6 mm 0.02 in0.5 mm
04:48 AM 44.8°F7.1°C 42.1°F5.6°C 90% 1.0 mph ENE1.6 kmh ENE 5.0 mph8.0 kmh 30.12 in1020.0 mb 0.01 in0.3 mm 0.00 in0.0 mm 0.02 in0.5 mm
04:50 AM 44.9°F7.2°C 42.2°F5.7°C 90% Calm Calm 5.0 mph8.0 kmh 30.12 in1020.0 mb 0.01 in0.3 mm 0.00 in0.0 mm 0.02 in0.5 mm
04:52 AM 44.9°F7.2°C 42.2°F5.7°C 90% Calm Calm 5.0 mph8.0 kmh 30.12 in1020.0 mb 0.01 in0.3 mm 0.00 in0.0 mm 0.02 in0.5 mm
04:54 AM 44.9°F7.2°C 42.2°F5.7°C 90% Calm Calm 5.0 mph8.0 kmh 30.12 in1020.0 mb 0.01 in0.3 mm 0.00 in0.0 mm 0.02 in0.5 mm
04:56 AM 44.9°F7.2°C 42.2°F5.7°C 90% Calm Calm 5.0 mph8.0 kmh 30.12 in1020.0 mb 0.01 in0.3 mm 0.00 in0.0 mm 0.02 in0.5 mm
04:58 AM 44.9°F7.2°C 42.2°F5.7°C 90% Calm Calm 5.0 mph8.0 kmh 30.12 in1020.0 mb 0.01 in0.3 mm 0.00 in0.0 mm 0.02 in0.5 mm
05:00 AM 45.0°F7.2°C 42.3°F5.7°C 90% Calm Calm 5.0 mph8.0 kmh 30.12 in1020.0 mb 0.02 in0.5 mm 0.01 in0.3 mm 0.03 in0.8 mm
05:02 AM 44.9°F7.2°C 42.2°F5.7°C 90% Calm Calm 5.0 mph8.0 kmh 30.12 in1020.0 mb 0.02 in0.5 mm 0.00 in0.0 mm 0.03 in0.8 mm
05:04 AM 44.9°F7.2°C 42.2°F5.7°C 90% Calm Calm -- 30.12 in1020.0 mb 0.02 in0.5 mm 0.00 in0.0 mm 0.03 in0.8 mm
05:06 AM 44.9°F7.2°C 42.2°F5.7°C 90% Calm Calm -- 30.12 in1020.0 mb 0.02 in0.5 mm 0.00 in0.0 mm 0.03 in0.8 mm
05:08 AM 45.0°F7.2°C 42.3°F5.7°C 90% Calm Calm -- 30.12 in1020.0 mb 0.02 in0.5 mm 0.00 in0.0 mm 0.03 in0.8 mm
05:10 AM 45.0°F7.2°C 42.3°F5.7°C 90% Calm Calm -- 30.12 in1020.0 mb 0.02 in0.5 mm 0.00 in0.0 mm 0.03 in0.8 mm
05:12 AM 45.0°F7.2°C 42.3°F5.7°C 90% Calm Calm -- 30.12 in1020.0 mb 0.02 in0.5 mm 0.00 in0.0 mm 0.03 in0.8 mm
05:14 AM 45.0°F7.2°C 42.3°F5.7°C 90% Calm Calm -- 30.11 in1019.6 mb 0.02 in0.5 mm 0.00 in0.0 mm 0.03 in0.8 mm
05:16 AM 45.0°F7.2°C 42.3°F5.7°C 90% Calm Calm -- 30.11 in1019.6 mb 0.02 in0.5 mm 0.00 in0.0 mm 0.03 in0.8 mm
05:18 AM 45.0°F7.2°C 42.3°F5.7°C 90% Calm Calm -- 30.11 in1019.6 mb 0.02 in0.5 mm 0.00 in0.0 mm 0.03 in0.8 mm
05:20 AM 45.0°F7.2°C 42.3°F5.7°C 90% Calm Calm -- 30.11 in1019.6 mb 0.02 in0.5 mm 0.00 in0.0 mm 0.03 in0.8 mm
05:22 AM 45.0°F7.2°C 42.3°F5.7°C 90% Calm Calm -- 30.12 in1020.0 mb 0.02 in0.5 mm 0.00 in0.0 mm 0.03 in0.8 mm
05:24 AM 45.0°F7.2°C 42.3°F5.7°C 90% Calm Calm -- 30.11 in1019.6 mb 0.02 in0.5 mm 0.00 in0.0 mm 0.03 in0.8 mm
05:26 AM 45.0°F7.2°C 42.3°F5.7°C 90% Calm Calm -- 30.11 in1019.6 mb 0.02 in0.5 mm 0.00 in0.0 mm 0.03 in0.8 mm
05:28 AM 45.0°F7.2°C 42.3°F5.7°C 90% Calm Calm 2.0 mph3.2 kmh 30.11 in1019.6 mb 0.02 in0.5 mm 0.00 in0.0 mm 0.03 in0.8 mm
05:30 AM 45.0°F7.2°C 42.3°F5.7°C 90% Calm Calm 2.0 mph3.2 kmh 30.11 in1019.6 mb 0.02 in0.5 mm 0.00 in0.0 mm 0.03 in0.8 mm
05:32 AM 45.0°F7.2°C 42.3°F5.7°C 90% Calm Calm 2.0 mph3.2 kmh 30.11 in1019.6 mb 0.02 in0.5 mm 0.00 in0.0 mm 0.03 in0.8 mm
05:34 AM 45.0°F7.2°C 42.3°F5.7°C 90% Calm Calm -- 30.12 in1020.0 mb 0.02 in0.5 mm 0.00 in0.0 mm 0.03 in0.8 mm
05:36 AM 45.0°F7.2°C 42.3°F5.7°C 90% Calm Calm -- 30.11 in1019.6 mb 0.02 in0.5 mm 0.00 in0.0 mm 0.03 in0.8 mm
05:38 AM 45.1°F7.3°C 42.4°F5.8°C 90% Calm Calm -- 30.12 in1020.0 mb 0.02 in0.5 mm 0.00 in0.0 mm 0.03 in0.8 mm
05:40 AM 45.1°F7.3°C 42.4°F5.8°C 90% Calm Calm -- 30.11 in1019.6 mb 0.03 in0.8 mm 0.30 in7.6 mm 0.04 in1.0 mm
05:42 AM 45.0°F7.2°C 42.3°F5.7°C 90% Calm Calm -- 30.11 in1019.6 mb 0.03 in0.8 mm 0.00 in0.0 mm 0.04 in1.0 mm
05:44 AM 45.1°F7.3°C 42.4°F5.8°C 90% Calm Calm -- 30.11 in1019.6 mb 0.03 in0.8 mm 0.00 in0.0 mm 0.04 in1.0 mm
05:46 AM 45.1°F7.3°C 42.4°F5.8°C 90% Calm Calm 2.0 mph3.2 kmh 30.11 in1019.6 mb 0.03 in0.8 mm 0.00 in0.0 mm 0.04 in1.0 mm
05:48 AM 45.1°F7.3°C 42.4°F5.8°C 90% Calm Calm 2.0 mph3.2 kmh 30.11 in1019.6 mb 0.03 in0.8 mm 0.00 in0.0 mm 0.04 in1.0 mm
05:50 AM 45.1°F7.3°C 42.4°F5.8°C 90% 2.0 mph ENE3.2 kmh ENE 2.0 mph3.2 kmh 30.11 in1019.6 mb 0.03 in0.8 mm 0.00 in0.0 mm 0.04 in1.0 mm
05:52 AM 45.1°F7.3°C 42.4°F5.8°C 90% Calm Calm 2.0 mph3.2 kmh 30.11 in1019.6 mb 0.03 in0.8 mm 0.00 in0.0 mm 0.04 in1.0 mm
05:54 AM 45.1°F7.3°C 42.4°F5.8°C 90% 1.0 mph ENE1.6 kmh ENE 2.0 mph3.2 kmh 30.10 in1019.3 mb 0.03 in0.8 mm 0.00 in0.0 mm 0.04 in1.0 mm
05:56 AM 45.1°F7.3°C 42.4°F5.8°C 90% 1.0 mph ENE1.6 kmh ENE 2.0 mph3.2 kmh 30.10 in1019.3 mb 0.03 in0.8 mm 0.00 in0.0 mm 0.04 in1.0 mm
05:58 AM 45.1°F7.3°C 42.4°F5.8°C 90% Calm Calm 4.0 mph6.4 kmh 30.10 in1019.3 mb 0.03 in0.8 mm 0.00 in0.0 mm 0.04 in1.0 mm
06:00 AM 45.2°F7.3°C 42.5°F5.8°C 90% 1.0 mph NE1.6 kmh NE 4.0 mph6.4 kmh 30.09 in1019.0 mb 0.03 in0.8 mm 0.00 in0.0 mm 0.04 in1.0 mm
06:02 AM 45.1°F7.3°C 42.4°F5.8°C 90% Calm Calm 4.0 mph6.4 kmh 30.09 in1019.0 mb 0.03 in0.8 mm 0.00 in0.0 mm 0.04 in1.0 mm
06:04 AM 45.2°F7.3°C 42.5°F5.8°C 90% 3.0 mph NE4.8 kmh NE 3.0 mph4.8 kmh 30.09 in1019.0 mb 0.01 in0.3 mm 0.00 in0.0 mm 0.04 in1.0 mm
06:06 AM 45.2°F7.3°C 42.5°F5.8°C 90% 2.0 mph NE3.2 kmh NE 4.0 mph6.4 kmh 30.09 in1019.0 mb 0.01 in0.3 mm 0.00 in0.0 mm 0.04 in1.0 mm
06:08 AM 45.2°F7.3°C 42.5°F5.8°C 90% 2.0 mph NE3.2 kmh NE 4.0 mph6.4 kmh 30.09 in1019.0 mb 0.01 in0.3 mm 0.00 in0.0 mm 0.04 in1.0 mm
06:10 AM 45.2°F7.3°C 42.5°F5.8°C 90% Calm Calm 4.0 mph6.4 kmh 30.09 in1019.0 mb 0.01 in0.3 mm 0.00 in0.0 mm 0.04 in1.0 mm
06:12 AM 45.2°F7.3°C 42.5°F5.8°C 90% Calm Calm 4.0 mph6.4 kmh 30.09 in1019.0 mb 0.01 in0.3 mm 0.00 in0.0 mm 0.04 in1.0 mm
06:14 AM 45.2°F7.3°C 42.5°F5.8°C 90% 2.0 mph ENE3.2 kmh ENE 4.0 mph6.4 kmh 30.10 in1019.3 mb 0.01 in0.3 mm 0.00 in0.0 mm 0.04 in1.0 mm
06:16 AM 45.2°F7.3°C 42.5°F5.8°C 90% 3.0 mph ENE4.8 kmh ENE 4.0 mph6.4 kmh 30.10 in1019.3 mb 0.01 in0.3 mm 0.00 in0.0 mm 0.04 in1.0 mm
06:18 AM 45.2°F7.3°C 42.5°F5.8°C 90% 2.0 mph ENE3.2 kmh ENE 4.0 mph6.4 kmh 30.09 in1019.0 mb 0.01 in0.3 mm 0.00 in0.0 mm 0.04 in1.0 mm
06:20 AM 45.2°F7.3°C 42.5°F5.8°C 90% 1.0 mph ENE1.6 kmh ENE 4.0 mph6.4 kmh 30.09 in1019.0 mb 0.01 in0.3 mm 0.00 in0.0 mm 0.04 in1.0 mm
06:22 AM 45.2°F7.3°C 42.5°F5.8°C 90% 2.0 mph ENE3.2 kmh ENE 4.0 mph6.4 kmh 30.09 in1019.0 mb 0.01 in0.3 mm 0.00 in0.0 mm 0.04 in1.0 mm
06:24 AM 45.2°F7.3°C 42.5°F5.8°C 90% Calm Calm 4.0 mph6.4 kmh 30.09 in1019.0 mb 0.01 in0.3 mm 0.00 in0.0 mm 0.04 in1.0 mm
06:26 AM 45.2°F7.3°C 42.5°F5.8°C 90% Calm Calm 4.0 mph6.4 kmh 30.09 in1019.0 mb 0.01 in0.3 mm 0.00 in0.0 mm 0.04 in1.0 mm
06:28 AM 45.3°F7.4°C 42.6°F5.9°C 90% 4.0 mph ENE6.4 kmh ENE 4.0 mph6.4 kmh 30.09 in1019.0 mb 0.01 in0.3 mm 0.00 in0.0 mm 0.04 in1.0 mm
06:30 AM 45.2°F7.3°C 42.5°F5.8°C 90% 3.0 mph ENE4.8 kmh ENE 4.0 mph6.4 kmh 30.09 in1019.0 mb 0.01 in0.3 mm 0.00 in0.0 mm 0.04 in1.0 mm
06:31 AM 45.2°F7.3°C 42.5°F5.8°C 90% 3.0 mph ENE4.8 kmh ENE 4.0 mph6.4 kmh 30.08 in1018.6 mb 0.01 in0.3 mm 0.00 in0.0 mm 0.04 in1.0 mm
06:34 AM 45.3°F7.4°C 42.6°F5.9°C 90% 3.0 mph NE4.8 kmh NE 5.0 mph8.0 kmh 30.08 in1018.6 mb 0.01 in0.3 mm 0.00 in0.0 mm 0.04 in1.0 mm
06:36 AM 45.3°F7.4°C 42.6°F5.9°C 90% 3.0 mph NE4.8 kmh NE 5.0 mph8.0 kmh 30.09 in1019.0 mb 0.01 in0.3 mm 0.00 in0.0 mm 0.04 in1.0 mm
06:38 AM 45.2°F7.3°C 42.5°F5.8°C 90% 1.0 mph NE1.6 kmh NE 5.0 mph8.0 kmh 30.09 in1019.0 mb 0.01 in0.3 mm 0.00 in0.0 mm 0.04 in1.0 mm
06:40 AM 45.2°F7.3°C 42.5°F5.8°C 90% 4.0 mph NE6.4 kmh NE 5.0 mph8.0 kmh 30.09 in1019.0 mb 0.01 in0.3 mm 0.00 in0.0 mm 0.04 in1.0 mm
06:42 AM 45.2°F7.3°C 42.5°F5.8°C 90% 1.0 mph NE1.6 kmh NE 5.0 mph8.0 kmh 30.09 in1019.0 mb 0.01 in0.3 mm 0.00 in0.0 mm 0.04 in1.0 mm
06:44 AM 45.2°F7.3°C 42.5°F5.8°C 90% 2.0 mph N3.2 kmh N 5.0 mph8.0 kmh 30.09 in1019.0 mb 0.01 in0.3 mm 0.00 in0.0 mm 0.04 in1.0 mm
06:46 AM 45.3°F7.4°C 42.6°F5.9°C 90% 1.0 mph N1.6 kmh N 5.0 mph8.0 kmh 30.09 in1019.0 mb 0.01 in0.3 mm 0.00 in0.0 mm 0.04 in1.0 mm
06:48 AM 45.3°F7.4°C 42.6°F5.9°C 90% Calm Calm 5.0 mph8.0 kmh 30.09 in1019.0 mb 0.01 in0.3 mm 0.00 in0.0 mm 0.04 in1.0 mm
06:50 AM 45.3°F7.4°C 42.6°F5.9°C 90% Calm Calm 5.0 mph8.0 kmh 30.10 in1019.3 mb 0.01 in0.3 mm 0.00 in0.0 mm 0.04 in1.0 mm
06:52 AM 45.3°F7.4°C 42.6°F5.9°C 90% Calm Calm 5.0 mph8.0 kmh 30.10 in1019.3 mb 0.01 in0.3 mm 0.00 in0.0 mm 0.04 in1.0 mm
06:54 AM 45.3°F7.4°C 42.6°F5.9°C 90% Calm Calm 5.0 mph8.0 kmh 30.10 in1019.3 mb 0.01 in0.3 mm 0.00 in0.0 mm 0.04 in1.0 mm
06:56 AM 45.3°F7.4°C 42.6°F5.9°C 90% Calm Calm 5.0 mph8.0 kmh 30.10 in1019.3 mb 0.01 in0.3 mm 0.00 in0.0 mm 0.04 in1.0 mm
06:58 AM 45.3°F7.4°C 42.6°F5.9°C 90% 3.0 mph NE4.8 kmh NE 5.0 mph8.0 kmh 30.08 in1018.6 mb 0.01 in0.3 mm 0.00 in0.0 mm 0.04 in1.0 mm
07:00 AM 45.3°F7.4°C 42.6°F5.9°C 90% 7.0 mph E11.3 kmh E 7.0 mph11.3 kmh 30.07 in1018.3 mb 0.01 in0.3 mm 0.00 in0.0 mm 0.04 in1.0 mm
07:02 AM 45.3°F7.4°C 42.6°F5.9°C 90% 7.0 mph ENE11.3 kmh ENE 8.0 mph12.9 kmh 30.06 in1017.9 mb 0.01 in0.3 mm 0.00 in0.0 mm 0.04 in1.0 mm
07:04 AM 45.4°F7.4°C 42.6°F5.9°C 90% 6.0 mph ENE9.7 kmh ENE 9.0 mph14.5 kmh 30.05 in1017.6 mb 0.00 in0.0 mm 0.00 in0.0 mm 0.04 in1.0 mm
07:06 AM 45.3°F7.4°C 42.6°F5.9°C 90% 5.0 mph ENE8.0 kmh ENE 11.0 mph17.7 kmh 30.03 in1016.9 mb 0.00 in0.0 mm 0.00 in0.0 mm 0.04 in1.0 mm
07:08 AM 45.4°F7.4°C 42.6°F5.9°C 90% 4.0 mph ENE6.4 kmh ENE 12.0 mph19.3 kmh 30.03 in1016.9 mb 0.00 in0.0 mm 0.00 in0.0 mm 0.04 in1.0 mm
07:10 AM 45.3°F7.4°C 42.6°F5.9°C 90% 5.0 mph ENE8.0 kmh ENE 12.0 mph19.3 kmh 30.03 in1016.9 mb 0.00 in0.0 mm 0.00 in0.0 mm 0.04 in1.0 mm
07:12 AM 45.3°F7.4°C 42.6°F5.9°C 90% 7.0 mph E11.3 kmh E 13.0 mph20.9 kmh 30.03 in1016.9 mb 0.00 in0.0 mm 0.00 in0.0 mm 0.04 in1.0 mm
07:14 AM 45.3°F7.4°C 42.6°F5.9°C 90% 7.0 mph E11.3 kmh E 13.0 mph20.9 kmh 30.03 in1016.9 mb 0.00 in0.0 mm 0.00 in0.0 mm 0.04 in1.0 mm
07:16 AM 45.3°F7.4°C 42.6°F5.9°C 90% 8.0 mph E12.9 kmh E 13.0 mph20.9 kmh 30.03 in1016.9 mb 0.00 in0.0 mm 0.00 in0.0 mm 0.04 in1.0 mm
07:18 AM 45.3°F7.4°C 42.6°F5.9°C 90% 10.0 mph E16.1 kmh E 14.0 mph22.5 kmh 30.01 in1016.3 mb 0.00 in0.0 mm 0.00 in0.0 mm 0.04 in1.0 mm
07:19 AM 45.3°F7.4°C 42.6°F5.9°C 90% 4.0 mph ENE6.4 kmh ENE 14.0 mph22.5 kmh 30.01 in1016.3 mb 0.00 in0.0 mm 0.00 in0.0 mm 0.04 in1.0 mm
07:22 AM 45.3°F7.4°C 42.6°F5.9°C 90% 5.0 mph E8.0 kmh E 15.0 mph24.1 kmh 30.01 in1016.3 mb 0.00 in0.0 mm 0.00 in0.0 mm 0.04 in1.0 mm
07:24 AM 45.4°F7.4°C 42.6°F5.9°C 90% 2.0 mph SE3.2 kmh SE 15.0 mph24.1 kmh 30.03 in1016.9 mb 0.00 in0.0 mm 0.00 in0.0 mm 0.04 in1.0 mm
07:25 AM 45.4°F7.4°C 42.6°F5.9°C 90% 4.0 mph S6.4 kmh S 15.0 mph24.1 kmh 30.04 in1017.3 mb 0.00 in0.0 mm 0.00 in0.0 mm 0.04 in1.0 mm
07:28 AM 45.4°F7.4°C 42.6°F5.9°C 90% 2.0 mph SE3.2 kmh SE 15.0 mph24.1 kmh 30.05 in1017.6 mb 0.00 in0.0 mm 0.00 in0.0 mm 0.04 in1.0 mm
07:30 AM 45.4°F7.4°C 42.6°F5.9°C 90% 1.0 mph SE1.6 kmh SE 15.0 mph24.1 kmh 30.05 in1017.6 mb 0.00 in0.0 mm 0.00 in0.0 mm 0.04 in1.0 mm
07:32 AM 45.5°F7.5°C 42.7°F5.9°C 90% 2.0 mph SE3.2 kmh SE 15.0 mph24.1 kmh 30.05 in1017.6 mb 0.00 in0.0 mm 0.00 in0.0 mm 0.04 in1.0 mm
07:34 AM 45.5°F7.5°C 42.7°F5.9°C 90% 3.0 mph SE4.8 kmh SE 6.0 mph9.7 kmh 30.05 in1017.6 mb 0.00 in0.0 mm 0.00 in0.0 mm 0.04 in1.0 mm
07:36 AM 45.5°F7.5°C 42.7°F5.9°C 90% 2.0 mph SE3.2 kmh SE 7.0 mph11.3 kmh 30.05 in1017.6 mb 0.00 in0.0 mm 0.00 in0.0 mm 0.04 in1.0 mm
07:38 AM 45.6°F7.6°C 42.8°F6.0°C 90% 3.0 mph ESE4.8 kmh ESE 7.0 mph11.3 kmh 30.05 in1017.6 mb 0.00 in0.0 mm 0.00 in0.0 mm 0.04 in1.0 mm
07:40 AM 45.7°F7.6°C 42.9°F6.1°C 90% 5.0 mph E8.0 kmh E 7.0 mph11.3 kmh 30.05 in1017.6 mb 0.00 in0.0 mm 0.00 in0.0 mm 0.04 in1.0 mm
07:42 AM 45.7°F7.6°C 42.9°F6.1°C 90% 3.0 mph SE4.8 kmh SE 7.0 mph11.3 kmh 30.05 in1017.6 mb 0.00 in0.0 mm 0.00 in0.0 mm 0.04 in1.0 mm
07:44 AM 45.8°F7.7°C 43.0°F6.1°C 90% 1.0 mph SE1.6 kmh SE 7.0 mph11.3 kmh 30.05 in1017.6 mb 0.00 in0.0 mm 0.00 in0.0 mm 0.04 in1.0 mm
07:46 AM 45.9°F7.7°C 43.1°F6.2°C 90% 4.0 mph ESE6.4 kmh ESE 8.0 mph12.9 kmh 30.05 in1017.6 mb 0.00 in0.0 mm 0.00 in0.0 mm 0.04 in1.0 mm
07:48 AM 45.9°F7.7°C 43.1°F6.2°C 90% 5.0 mph E8.0 kmh E 8.0 mph12.9 kmh 30.04 in1017.3 mb 0.00 in0.0 mm 0.00 in0.0 mm 0.04 in1.0 mm
07:50 AM 46.0°F7.8°C 43.2°F6.2°C 90% 3.0 mph E4.8 kmh E 8.0 mph12.9 kmh 30.04 in1017.3 mb 0.00 in0.0 mm 0.00 in0.0 mm 0.04 in1.0 mm
07:52 AM 45.9°F7.7°C 43.1°F6.2°C 90% 7.0 mph E11.3 kmh E 8.0 mph12.9 kmh 30.04 in1017.3 mb 0.00 in0.0 mm 0.00 in0.0 mm 0.04 in1.0 mm
07:54 AM 46.0°F7.8°C 43.2°F6.2°C 90% 4.0 mph E6.4 kmh E 8.0 mph12.9 kmh 30.04 in1017.3 mb 0.00 in0.0 mm 0.00 in0.0 mm 0.04 in1.0 mm
07:56 AM 46.0°F7.8°C 43.2°F6.2°C 90% 4.0 mph E6.4 kmh E 8.0 mph12.9 kmh 30.04 in1017.3 mb 0.00 in0.0 mm 0.00 in0.0 mm 0.04 in1.0 mm
07:58 AM 46.1°F7.8°C 43.3°F6.3°C 90% 3.0 mph E4.8 kmh E 9.0 mph14.5 kmh 30.04 in1017.3 mb 0.00 in0.0 mm 0.00 in0.0 mm 0.04 in1.0 mm
08:00 AM 46.1°F7.8°C 43.3°F6.3°C 90% 7.0 mph E11.3 kmh E 9.0 mph14.5 kmh 30.04 in1017.3 mb 0.00 in0.0 mm 0.00 in0.0 mm 0.04 in1.0 mm
08:02 AM 46.1°F7.8°C 43.3°F6.3°C 90% 3.0 mph SE4.8 kmh SE 9.0 mph14.5 kmh 30.04 in1017.3 mb 0.00 in0.0 mm 0.00 in0.0 mm 0.04 in1.0 mm
08:04 AM 46.2°F7.9°C 43.4°F6.3°C 90% 8.0 mph SE12.9 kmh SE 10.0 mph16.1 kmh 30.03 in1016.9 mb 0.00 in0.0 mm 0.00 in0.0 mm 0.04 in1.0 mm
08:06 AM 46.2°F7.9°C 43.4°F6.3°C 90% 3.0 mph E4.8 kmh E 10.0 mph16.1 kmh 30.03 in1016.9 mb 0.00 in0.0 mm 0.00 in0.0 mm 0.04 in1.0 mm
08:08 AM 46.2°F7.9°C 43.4°F6.3°C 90% 4.0 mph E6.4 kmh E 10.0 mph16.1 kmh 30.04 in1017.3 mb 0.00 in0.0 mm 0.00 in0.0 mm 0.04 in1.0 mm
08:10 AM 46.3°F7.9°C 43.5°F6.4°C 90% 1.0 mph ESE1.6 kmh ESE 10.0 mph16.1 kmh 30.05 in1017.6 mb 0.00 in0.0 mm 0.00 in0.0 mm 0.04 in1.0 mm
08:12 AM 46.3°F7.9°C 43.5°F6.4°C 90% 2.0 mph SSE3.2 kmh SSE 10.0 mph16.1 kmh 30.05 in1017.6 mb 0.00 in0.0 mm 0.00 in0.0 mm 0.04 in1.0 mm
08:14 AM 46.3°F7.9°C 43.5°F6.4°C 90% Calm Calm 10.0 mph16.1 kmh 30.06 in1017.9 mb 0.00 in0.0 mm 0.00 in0.0 mm 0.04 in1.0 mm
08:16 AM 46.4°F8.0°C 43.6°F6.4°C 90% 2.0 mph NE3.2 kmh NE 10.0 mph16.1 kmh 30.05 in1017.6 mb 0.00 in0.0 mm 0.00 in0.0 mm 0.04 in1.0 mm
08:18 AM 46.4°F8.0°C 43.6°F6.4°C 90% 2.0 mph NE3.2 kmh NE 10.0 mph16.1 kmh 30.05 in1017.6 mb 0.00 in0.0 mm 0.00 in0.0 mm 0.04 in1.0 mm
08:20 AM 46.5°F8.1°C 43.7°F6.5°C 90% Calm Calm 10.0 mph16.1 kmh 30.05 in1017.6 mb 0.00 in0.0 mm 0.00 in0.0 mm 0.04 in1.0 mm
08:22 AM 46.4°F8.0°C 43.6°F6.4°C 90% Calm Calm 10.0 mph16.1 kmh 30.05 in1017.6 mb 0.00 in0.0 mm 0.00 in0.0 mm 0.04 in1.0 mm
08:24 AM 46.5°F8.1°C 43.7°F6.5°C 90% Calm Calm 10.0 mph16.1 kmh 30.05 in1017.6 mb 0.00 in0.0 mm 0.00 in0.0 mm 0.04 in1.0 mm
08:26 AM 46.5°F8.1°C 43.7°F6.5°C 90% 1.0 mph NE1.6 kmh NE 10.0 mph16.1 kmh 30.05 in1017.6 mb 0.00 in0.0 mm 0.00 in0.0 mm 0.04 in1.0 mm
08:28 AM 46.6°F8.1°C 43.8°F6.6°C 90% Calm Calm 10.0 mph16.1 kmh 30.05 in1017.6 mb 0.00 in0.0 mm 0.00 in0.0 mm 0.04 in1.0 mm
08:30 AM 46.6°F8.1°C 43.8°F6.6°C 90% 1.0 mph NE1.6 kmh NE 10.0 mph16.1 kmh 30.05 in1017.6 mb 0.00 in0.0 mm 0.00 in0.0 mm 0.04 in1.0 mm
08:32 AM 46.6°F8.1°C 43.8°F6.6°C 90% Calm Calm 10.0 mph16.1 kmh 30.05 in1017.6 mb 0.00 in0.0 mm 0.00 in0.0 mm 0.04 in1.0 mm
08:34 AM 46.6°F8.1°C 43.8°F6.6°C 90% Calm Calm -- 30.05 in1017.6 mb 0.00 in0.0 mm 0.00 in0.0 mm 0.04 in1.0 mm
08:36 AM 46.6°F8.1°C 43.8°F6.6°C 90% Calm Calm 2.0 mph3.2 kmh 30.05 in1017.6 mb 0.00 in0.0 mm 0.00 in0.0 mm 0.04 in1.0 mm
08:38 AM 46.6°F8.1°C 43.8°F6.6°C 90% 2.0 mph NE3.2 kmh NE 3.0 mph4.8 kmh 30.05 in1017.6 mb 0.00 in0.0 mm 0.00 in0.0 mm 0.04 in1.0 mm
08:40 AM 46.7°F8.2°C 43.9°F6.6°C 90% Calm Calm 3.0 mph4.8 kmh 30.05 in1017.6 mb 0.00 in0.0 mm 0.00 in0.0 mm 0.04 in1.0 mm
08:42 AM 46.8°F8.2°C 44.0°F6.7°C 90% 2.0 mph NNW3.2 kmh NNW 4.0 mph6.4 kmh 30.05 in1017.6 mb 0.00 in0.0 mm 0.00 in0.0 mm 0.04 in1.0 mm
08:44 AM 46.8°F8.2°C 44.0°F6.7°C 90% 2.0 mph NNW3.2 kmh NNW 4.0 mph6.4 kmh 30.06 in1017.9 mb 0.00 in0.0 mm 0.00 in0.0 mm 0.04 in1.0 mm
08:46 AM 46.8°F8.2°C 44.0°F6.7°C 90% 1.0 mph NNW1.6 kmh NNW 4.0 mph6.4 kmh 30.06 in1017.9 mb 0.00 in0.0 mm 0.00 in0.0 mm 0.04 in1.0 mm
08:48 AM 46.8°F8.2°C 44.0°F6.7°C 90% 1.0 mph NNW1.6 kmh NNW 4.0 mph6.4 kmh 30.06 in1017.9 mb 0.00 in0.0 mm 0.00 in0.0 mm 0.04 in1.0 mm
08:50 AM 46.9°F8.3°C 44.1°F6.7°C 90% 3.0 mph NNW4.8 kmh NNW 4.0 mph6.4 kmh 30.05 in1017.6 mb 0.00 in0.0 mm 0.00 in0.0 mm 0.04 in1.0 mm
08:52 AM 46.9°F8.3°C 44.1°F6.7°C 90% 2.0 mph NNW3.2 kmh NNW 4.0 mph6.4 kmh 30.05 in1017.6 mb 0.00 in0.0 mm 0.00 in0.0 mm 0.04 in1.0 mm
08:54 AM 46.9°F8.3°C 44.1°F6.7°C 90% Calm Calm 4.0 mph6.4 kmh 30.05 in1017.6 mb 0.00 in0.0 mm 0.00 in0.0 mm 0.04 in1.0 mm
08:56 AM 46.9°F8.3°C 44.1°F6.7°C 90% Calm Calm 4.0 mph6.4 kmh 30.05 in1017.6 mb 0.00 in0.0 mm 0.00 in0.0 mm 0.04 in1.0 mm
08:58 AM 47.0°F8.3°C 44.2°F6.8°C 90% 3.0 mph N4.8 kmh N 4.0 mph6.4 kmh 30.06 in1017.9 mb 0.00 in0.0 mm 0.00 in0.0 mm 0.04 in1.0 mm
09:00 AM 47.0°F8.3°C 44.2°F6.8°C 90% 1.0 mph N1.6 kmh N 4.0 mph6.4 kmh 30.06 in1017.9 mb 0.00 in0.0 mm 0.00 in0.0 mm 0.04 in1.0 mm
09:02 AM 47.0°F8.3°C 44.2°F6.8°C 90% 1.0 mph N1.6 kmh N 4.0 mph6.4 kmh 30.06 in1017.9 mb 0.00 in0.0 mm 0.00 in0.0 mm 0.04 in1.0 mm
09:04 AM 47.1°F8.4°C 44.3°F6.8°C 90% 2.0 mph N3.2 kmh N 2.0 mph3.2 kmh 30.06 in1017.9 mb 0.00 in0.0 mm 0.00 in0.0 mm 0.04 in1.0 mm
09:06 AM 47.1°F8.4°C 44.6°F7.0°C 91% Calm Calm 3.0 mph4.8 kmh 30.06 in1017.9 mb 0.00 in0.0 mm 0.00 in0.0 mm 0.04 in1.0 mm
09:08 AM 47.1°F8.4°C 44.3°F6.8°C 90% 3.0 mph N4.8 kmh N 3.0 mph4.8 kmh 30.06 in1017.9 mb 0.00 in0.0 mm 0.00 in0.0 mm 0.04 in1.0 mm
09:09 AM 47.1°F8.4°C 44.3°F6.8°C 90% 3.0 mph N4.8 kmh N 3.0 mph4.8 kmh 30.06 in1017.9 mb 0.00 in0.0 mm 0.00 in0.0 mm 0.04 in1.0 mm
09:12 AM 47.1°F8.4°C 44.3°F6.8°C 90% 2.0 mph N3.2 kmh N 3.0 mph4.8 kmh 30.06 in1017.9 mb 0.00 in0.0 mm 0.00 in0.0 mm 0.04 in1.0 mm
09:14 AM 47.2°F8.4°C 44.4°F6.9°C 90% 1.0 mph N1.6 kmh N 3.0 mph4.8 kmh 30.06 in1017.9 mb 0.00 in0.0 mm 0.00 in0.0 mm 0.04 in1.0 mm
09:16 AM 47.2°F8.4°C 44.4°F6.9°C 90% 2.0 mph N3.2 kmh N 3.0 mph4.8 kmh 30.06 in1017.9 mb 0.00 in0.0 mm 0.00 in0.0 mm 0.04 in1.0 mm
09:18 AM 47.2°F8.4°C 44.4°F6.9°C 90% 1.0 mph N1.6 kmh N 3.0 mph4.8 kmh 30.07 in1018.3 mb 0.00 in0.0 mm 0.00 in0.0 mm 0.04 in1.0 mm
09:20 AM 47.3°F8.5°C 44.8°F7.1°C 91% 3.0 mph NNW4.8 kmh NNW 4.0 mph6.4 kmh 30.07 in1018.3 mb 0.00 in0.0 mm 0.00 in0.0 mm 0.04 in1.0 mm
09:22 AM 47.3°F8.5°C 44.8°F7.1°C 91% 2.0 mph NNW3.2 kmh NNW 5.0 mph8.0 kmh 30.07 in1018.3 mb 0.00 in0.0 mm 0.00 in0.0 mm 0.04 in1.0 mm
09:24 AM 47.4°F8.6°C 44.6°F7.0°C 90% 3.0 mph NNW4.8 kmh NNW 5.0 mph8.0 kmh 30.08 in1018.6 mb 0.00 in0.0 mm 0.00 in0.0 mm 0.04 in1.0 mm
09:26 AM 47.4°F8.6°C 44.6°F7.0°C 90% 1.0 mph NNW1.6 kmh NNW 5.0 mph8.0 kmh 30.08 in1018.6 mb 0.00 in0.0 mm 0.00 in0.0 mm 0.04 in1.0 mm
09:28 AM 47.5°F8.6°C 44.7°F7.1°C 90% 3.0 mph NW4.8 kmh NW 5.0 mph8.0 kmh 30.09 in1019.0 mb 0.00 in0.0 mm 0.00 in0.0 mm 0.04 in1.0 mm
09:30 AM 47.5°F8.6°C 44.7°F7.1°C 90% 4.0 mph NW6.4 kmh NW 5.0 mph8.0 kmh 30.09 in1019.0 mb 0.00 in0.0 mm 0.00 in0.0 mm 0.04 in1.0 mm
09:32 AM 47.5°F8.6°C 44.7°F7.1°C 90% 2.0 mph NW3.2 kmh NW 5.0 mph8.0 kmh 30.09 in1019.0 mb 0.00 in0.0 mm 0.00 in0.0 mm 0.04 in1.0 mm
09:34 AM 47.6°F8.7°C 44.8°F7.1°C 90% 2.0 mph NW3.2 kmh NW 4.0 mph6.4 kmh 30.10 in1019.3 mb 0.00 in0.0 mm 0.00 in0.0 mm 0.04 in1.0 mm
09:36 AM 47.6°F8.7°C 44.8°F7.1°C 90% 2.0 mph NW3.2 kmh NW 5.0 mph8.0 kmh 30.10 in1019.3 mb 0.00 in0.0 mm 0.00 in0.0 mm 0.04 in1.0 mm
09:38 AM 47.7°F8.7°C 44.9°F7.2°C 90% 4.0 mph WNW6.4 kmh WNW 7.0 mph11.3 kmh 30.11 in1019.6 mb 0.00 in0.0 mm 0.00 in0.0 mm 0.04 in1.0 mm
09:40 AM 47.7°F8.7°C 44.9°F7.2°C 90% 5.0 mph WNW8.0 kmh WNW 8.0 mph12.9 kmh 30.11 in1019.6 mb 0.00 in0.0 mm 0.00 in0.0 mm 0.04 in1.0 mm
09:42 AM 47.7°F8.7°C 45.2°F7.3°C 91% 5.0 mph NW8.0 kmh NW 8.0 mph12.9 kmh 30.11 in1019.6 mb 0.00 in0.0 mm 0.00 in0.0 mm 0.04 in1.0 mm
09:44 AM 47.7°F8.7°C 45.2°F7.3°C 91% 4.0 mph WSW6.4 kmh WSW 8.0 mph12.9 kmh 30.11 in1019.6 mb 0.00 in0.0 mm 0.00 in0.0 mm 0.04 in1.0 mm
09:46 AM 47.8°F8.8°C 45.3°F7.4°C 91% 6.0 mph NW9.7 kmh NW 11.0 mph17.7 kmh 30.11 in1019.6 mb 0.00 in0.0 mm 0.00 in0.0 mm 0.04 in1.0 mm
09:48 AM 47.8°F8.8°C 45.3°F7.4°C 91% 10.0 mph WNW16.1 kmh WNW 11.0 mph17.7 kmh 30.11 in1019.6 mb 0.00 in0.0 mm 0.00 in0.0 mm 0.04 in1.0 mm
09:50 AM 47.8°F8.8°C 45.3°F7.4°C 91% 10.0 mph NNW16.1 kmh NNW 11.0 mph17.7 kmh 30.10 in1019.3 mb 0.00 in0.0 mm 0.00 in0.0 mm 0.04 in1.0 mm
09:52 AM 47.8°F8.8°C 45.3°F7.4°C 91% 7.0 mph WNW11.3 kmh WNW 11.0 mph17.7 kmh 30.11 in1019.6 mb 0.00 in0.0 mm 0.00 in0.0 mm 0.04 in1.0 mm
09:54 AM 47.8°F8.8°C 45.0°F7.2°C 90% 4.0 mph NW6.4 kmh NW 11.0 mph17.7 kmh 30.11 in1019.6 mb 0.00 in0.0 mm 0.00 in0.0 mm 0.04 in1.0 mm
09:56 AM 47.8°F8.8°C 45.0°F7.2°C 90% 4.0 mph NW6.4 kmh NW 11.0 mph17.7 kmh 30.11 in1019.6 mb 0.00 in0.0 mm 0.00 in0.0 mm 0.04 in1.0 mm
09:58 AM 47.8°F8.8°C 45.0°F7.2°C 90% 6.0 mph N9.7 kmh N 11.0 mph17.7 kmh 30.11 in1019.6 mb 0.01 in0.3 mm 0.30 in7.6 mm 0.05 in1.3 mm
10:00 AM 47.6°F8.7°C 44.8°F7.1°C 90% 5.0 mph NW8.0 kmh NW 11.0 mph17.7 kmh 30.10 in1019.3 mb 0.01 in0.3 mm 0.00 in0.0 mm 0.05 in1.3 mm
10:02 AM 47.5°F8.6°C 44.7°F7.1°C 90% 4.0 mph NW6.4 kmh NW 11.0 mph17.7 kmh 30.10 in1019.3 mb 0.01 in0.3 mm 0.00 in0.0 mm 0.05 in1.3 mm
10:04 AM 47.5°F8.6°C 44.7°F7.1°C 90% 9.0 mph WNW14.5 kmh WNW 9.0 mph14.5 kmh 30.10 in1019.3 mb 0.02 in0.5 mm 0.30 in7.6 mm 0.06 in1.5 mm
10:05 AM 47.4°F8.6°C 44.6°F7.0°C 90% 3.0 mph NW4.8 kmh NW 9.0 mph14.5 kmh 30.10 in1019.3 mb 0.02 in0.5 mm 0.00 in0.0 mm 0.06 in1.5 mm
10:08 AM 47.4°F8.6°C 44.6°F7.0°C 90% 2.0 mph NNW3.2 kmh NNW 9.0 mph14.5 kmh 30.10 in1019.3 mb 0.02 in0.5 mm 0.00 in0.0 mm 0.06 in1.5 mm
10:10 AM 47.4°F8.6°C 44.6°F7.0°C 90% 6.0 mph NNW9.7 kmh NNW 9.0 mph14.5 kmh 30.09 in1019.0 mb 0.02 in0.5 mm 0.00 in0.0 mm 0.06 in1.5 mm
10:11 AM 47.4°F8.6°C 44.6°F7.0°C 90% 6.0 mph NNW9.7 kmh NNW 9.0 mph14.5 kmh 30.09 in1019.0 mb 0.02 in0.5 mm 0.00 in0.0 mm 0.06 in1.5 mm
10:14 AM 47.3°F8.5°C 44.5°F6.9°C 90% 3.0 mph N4.8 kmh N 9.0 mph14.5 kmh 30.08 in1018.6 mb 0.02 in0.5 mm 0.00 in0.0 mm 0.06 in1.5 mm
10:16 AM 47.3°F8.5°C 44.5°F6.9°C 90% 4.0 mph N6.4 kmh N 9.0 mph14.5 kmh 30.08 in1018.6 mb 0.02 in0.5 mm 0.00 in0.0 mm 0.06 in1.5 mm
10:18 AM 47.3°F8.5°C 44.5°F6.9°C 90% 5.0 mph N8.0 kmh N 9.0 mph14.5 kmh 30.08 in1018.6 mb 0.02 in0.5 mm 0.00 in0.0 mm 0.06 in1.5 mm
10:20 AM 47.2°F8.4°C 44.4°F6.9°C 90% 4.0 mph N6.4 kmh N 9.0 mph14.5 kmh 30.08 in1018.6 mb 0.02 in0.5 mm 0.00 in0.0 mm 0.06 in1.5 mm
10:22 AM 47.2°F8.4°C 44.4°F6.9°C 90% 1.0 mph NE1.6 kmh NE 9.0 mph14.5 kmh 30.08 in1018.6 mb 0.02 in0.5 mm 0.00 in0.0 mm 0.06 in1.5 mm
10:24 AM 47.2°F8.4°C 44.4°F6.9°C 90% 1.0 mph NE1.6 kmh NE 9.0 mph14.5 kmh 30.08 in1018.6 mb 0.02 in0.5 mm 0.00 in0.0 mm 0.06 in1.5 mm
10:26 AM 47.2°F8.4°C 44.4°F6.9°C 90% Calm Calm 9.0 mph14.5 kmh 30.08 in1018.6 mb 0.02 in0.5 mm 0.00 in0.0 mm 0.06 in1.5 mm
10:28 AM 47.3°F8.5°C 44.8°F7.1°C 91% 5.0 mph N8.0 kmh N 9.0 mph14.5 kmh 30.08 in1018.6 mb 0.02 in0.5 mm 0.00 in0.0 mm 0.06 in1.5 mm
10:30 AM 47.3°F8.5°C 44.8°F7.1°C 91% 3.0 mph NNE4.8 kmh NNE 9.0 mph14.5 kmh 30.07 in1018.3 mb 0.02 in0.5 mm 0.00 in0.0 mm 0.06 in1.5 mm
10:32 AM 47.3°F8.5°C 44.8°F7.1°C 91% 2.0 mph NE3.2 kmh NE 9.0 mph14.5 kmh 30.07 in1018.3 mb 0.02 in0.5 mm 0.00 in0.0 mm 0.06 in1.5 mm
10:34 AM 47.3°F8.5°C 44.5°F6.9°C 90% 4.0 mph NNE6.4 kmh NNE 4.0 mph6.4 kmh 30.07 in1018.3 mb 0.02 in0.5 mm 0.00 in0.0 mm 0.06 in1.5 mm
10:36 AM 47.3°F8.5°C 44.5°F6.9°C 90% 3.0 mph NNE4.8 kmh NNE 5.0 mph8.0 kmh 30.06 in1017.9 mb 0.02 in0.5 mm 0.00 in0.0 mm 0.06 in1.5 mm
10:38 AM 47.4°F8.6°C 44.6°F7.0°C 90% Calm Calm 5.0 mph8.0 kmh 30.07 in1018.3 mb 0.02 in0.5 mm 0.00 in0.0 mm 0.06 in1.5 mm
10:40 AM 47.5°F8.6°C 45.0°F7.2°C 91% 2.0 mph N3.2 kmh N 5.0 mph8.0 kmh 30.07 in1018.3 mb 0.02 in0.5 mm 0.00 in0.0 mm 0.06 in1.5 mm
10:42 AM 47.6°F8.7°C 45.1°F7.3°C 91% 1.0 mph NE1.6 kmh NE 5.0 mph8.0 kmh 30.06 in1017.9 mb 0.02 in0.5 mm 0.00 in0.0 mm 0.06 in1.5 mm
10:44 AM 47.6°F8.7°C 45.1°F7.3°C 91% 2.0 mph NE3.2 kmh NE 5.0 mph8.0 kmh 30.06 in1017.9 mb 0.02 in0.5 mm 0.00 in0.0 mm 0.06 in1.5 mm
10:46 AM 47.6°F8.7°C 45.1°F7.3°C 91% 1.0 mph NE1.6 kmh NE 5.0 mph8.0 kmh 30.06 in1017.9 mb 0.02 in0.5 mm 0.00 in0.0 mm 0.06 in1.5 mm
10:48 AM 47.7°F8.7°C 45.2°F7.3°C 91% 1.0 mph NE1.6 kmh NE 5.0 mph8.0 kmh 30.06 in1017.9 mb 0.02 in0.5 mm 0.00 in0.0 mm 0.06 in1.5 mm
10:50 AM 47.7°F8.7°C 45.2°F7.3°C 91% 5.0 mph NE8.0 kmh NE 5.0 mph8.0 kmh 30.06 in1017.9 mb 0.02 in0.5 mm 0.00 in0.0 mm 0.06 in1.5 mm
10:52 AM 47.7°F8.7°C 45.2°F7.3°C 91% 6.0 mph NE9.7 kmh NE 6.0 mph9.7 kmh 30.05 in1017.6 mb 0.02 in0.5 mm 0.00 in0.0 mm 0.06 in1.5 mm
10:54 AM 47.8°F8.8°C 45.3°F7.4°C 91% 4.0 mph NE6.4 kmh NE 7.0 mph11.3 kmh 30.05 in1017.6 mb 0.02 in0.5 mm 0.00 in0.0 mm 0.06 in1.5 mm
10:56 AM 47.7°F8.7°C 45.2°F7.3°C 91% Calm Calm 7.0 mph11.3 kmh 30.05 in1017.6 mb 0.02 in0.5 mm 0.00 in0.0 mm 0.06 in1.5 mm
10:58 AM 47.8°F8.8°C 45.3°F7.4°C 91% 2.0 mph NE3.2 kmh NE 7.0 mph11.3 kmh 30.05 in1017.6 mb 0.03 in0.8 mm 0.30 in7.6 mm 0.07 in1.8 mm
11:00 AM 47.9°F8.8°C 45.4°F7.4°C 91% 6.0 mph NE9.7 kmh NE 7.0 mph11.3 kmh 30.05 in1017.6 mb 0.03 in0.8 mm 0.00 in0.0 mm 0.07 in1.8 mm
11:02 AM 47.9°F8.8°C 45.4°F7.4°C 91% 4.0 mph ENE6.4 kmh ENE 9.0 mph14.5 kmh 30.04 in1017.3 mb 0.04 in1.0 mm 0.30 in7.6 mm 0.08 in2.0 mm
11:04 AM 47.9°F8.8°C 45.4°F7.4°C 91% 3.0 mph ENE4.8 kmh ENE 6.0 mph9.7 kmh 30.04 in1017.3 mb 0.02 in0.5 mm 0.00 in0.0 mm 0.08 in2.0 mm
11:06 AM 47.9°F8.8°C 45.4°F7.4°C 91% 3.0 mph NE4.8 kmh NE 7.0 mph11.3 kmh 30.04 in1017.3 mb 0.02 in0.5 mm 0.00 in0.0 mm 0.08 in2.0 mm
11:08 AM 48.0°F8.9°C 45.5°F7.5°C 91% 1.0 mph NE1.6 kmh NE 7.0 mph11.3 kmh 30.04 in1017.3 mb 0.02 in0.5 mm 0.00 in0.0 mm 0.08 in2.0 mm
11:10 AM 48.0°F8.9°C 45.5°F7.5°C 91% Calm Calm 7.0 mph11.3 kmh 30.04 in1017.3 mb 0.02 in0.5 mm 0.00 in0.0 mm 0.08 in2.0 mm
11:11 AM 48.1°F8.9°C 45.6°F7.6°C 91% 1.0 mph NE1.6 kmh NE 7.0 mph11.3 kmh 30.05 in1017.6 mb 0.02 in0.5 mm 0.00 in0.0 mm 0.08 in2.0 mm
11:14 AM 48.2°F9.0°C 45.7°F7.6°C 91% 2.0 mph NE3.2 kmh NE 7.0 mph11.3 kmh 30.04 in1017.3 mb 0.02 in0.5 mm 0.00 in0.0 mm 0.08 in2.0 mm
11:16 AM 48.2°F9.0°C 45.7°F7.6°C 91% 2.0 mph NE3.2 kmh NE 7.0 mph11.3 kmh 30.04 in1017.3 mb 0.02 in0.5 mm 0.00 in0.0 mm 0.08 in2.0 mm
11:18 AM 48.2°F9.0°C 45.7°F7.6°C 91% 5.0 mph NE8.0 kmh NE 7.0 mph11.3 kmh 30.04 in1017.3 mb 0.02 in0.5 mm 0.00 in0.0 mm 0.08 in2.0 mm
11:20 AM 48.3°F9.1°C 45.8°F7.7°C 91% 2.0 mph NE3.2 kmh NE 7.0 mph11.3 kmh 30.03 in1016.9 mb 0.02 in0.5 mm 0.00 in0.0 mm 0.08 in2.0 mm
11:22 AM 48.3°F9.1°C 45.8°F7.7°C 91% 3.0 mph NE4.8 kmh NE 7.0 mph11.3 kmh 30.03 in1016.9 mb 0.02 in0.5 mm 0.00 in0.0 mm 0.08 in2.0 mm
11:24 AM 48.3°F9.1°C 45.8°F7.7°C 91% 3.0 mph ENE4.8 kmh ENE 7.0 mph11.3 kmh 30.03 in1016.9 mb 0.02 in0.5 mm 0.00 in0.0 mm 0.08 in2.0 mm
11:26 AM 48.3°F9.1°C 45.8°F7.7°C 91% 4.0 mph ENE6.4 kmh ENE 7.0 mph11.3 kmh 30.03 in1016.9 mb 0.02 in0.5 mm 0.00 in0.0 mm 0.08 in2.0 mm
11:28 AM 48.3°F9.1°C 45.8°F7.7°C 91% 4.0 mph ENE6.4 kmh ENE 7.0 mph11.3 kmh 30.02 in1016.6 mb 0.02 in0.5 mm 0.00 in0.0 mm 0.08 in2.0 mm
11:30 AM 48.4°F9.1°C 45.9°F7.7°C 91% Calm Calm 7.0 mph11.3 kmh 30.03 in1016.9 mb 0.02 in0.5 mm 0.00 in0.0 mm 0.08 in2.0 mm
11:32 AM 48.5°F9.2°C 46.0°F7.8°C 91% Calm Calm 7.0 mph11.3 kmh 30.03 in1016.9 mb 0.02 in0.5 mm 0.00 in0.0 mm 0.08 in2.0 mm
11:34 AM 48.5°F9.2°C 46.0°F7.8°C 91% 2.0 mph E3.2 kmh E 2.0 mph3.2 kmh 30.03 in1016.9 mb 0.02 in0.5 mm 0.00 in0.0 mm 0.08 in2.0 mm
11:36 AM 48.6°F9.2°C 46.1°F7.8°C 91% 2.0 mph E3.2 kmh E 2.0 mph3.2 kmh 30.03 in1016.9 mb 0.02 in0.5 mm 0.00 in0.0 mm 0.08 in2.0 mm
11:38 AM 48.6°F9.2°C 46.1°F7.8°C 91% 3.0 mph E4.8 kmh E 3.0 mph4.8 kmh 30.02 in1016.6 mb 0.02 in0.5 mm 0.00 in0.0 mm 0.08 in2.0 mm
11:40 AM 48.6°F9.2°C 46.1°F7.8°C 91% 2.0 mph E3.2 kmh E 3.0 mph4.8 kmh 30.02 in1016.6 mb 0.02 in0.5 mm 0.00 in0.0 mm 0.08 in2.0 mm
11:42 AM 48.6°F9.2°C 46.1°F7.8°C 91% 2.0 mph E3.2 kmh E 4.0 mph6.4 kmh 30.02 in1016.6 mb 0.02 in0.5 mm 0.00 in0.0 mm 0.08 in2.0 mm
11:44 AM 48.6°F9.2°C 46.1°F7.8°C 91% 3.0 mph E4.8 kmh E 4.0 mph6.4 kmh 30.01 in1016.3 mb 0.02 in0.5 mm 0.00 in0.0 mm 0.08 in2.0 mm
11:46 AM 48.6°F9.2°C 46.1°F7.8°C 91% 2.0 mph ENE3.2 kmh ENE 4.0 mph6.4 kmh 30.02 in1016.6 mb 0.02 in0.5 mm 0.00 in0.0 mm 0.08 in2.0 mm
11:48 AM 48.6°F9.2°C 46.1°F7.8°C 91% Calm Calm 4.0 mph6.4 kmh 30.01 in1016.3 mb 0.02 in0.5 mm 0.00 in0.0 mm 0.08 in2.0 mm
11:50 AM 48.7°F9.3°C 46.2°F7.9°C 91% Calm Calm 4.0 mph6.4 kmh 30.02 in1016.6 mb 0.02 in0.5 mm 0.00 in0.0 mm 0.08 in2.0 mm
11:52 AM 48.7°F9.3°C 46.2°F7.9°C 91% Calm Calm 4.0 mph6.4 kmh 30.02 in1016.6 mb 0.02 in0.5 mm 0.00 in0.0 mm 0.08 in2.0 mm
11:54 AM 48.7°F9.3°C 46.2°F7.9°C 91% Calm Calm 4.0 mph6.4 kmh 30.02 in1016.6 mb 0.02 in0.5 mm 0.00 in0.0 mm 0.08 in2.0 mm
11:56 AM 48.8°F9.3°C 46.3°F7.9°C 91% Calm Calm 4.0 mph6.4 kmh 30.01 in1016.3 mb 0.02 in0.5 mm 0.00 in0.0 mm 0.08 in2.0 mm
11:58 AM 48.8°F9.3°C 46.3°F7.9°C 91% 1.0 mph ENE1.6 kmh ENE 4.0 mph6.4 kmh 30.01 in1016.3 mb 0.02 in0.5 mm 0.00 in0.0 mm 0.08 in2.0 mm
12:00 PM 48.8°F9.3°C 46.3°F7.9°C 91% 2.0 mph ENE3.2 kmh ENE 4.0 mph6.4 kmh 30.01 in1016.3 mb 0.02 in0.5 mm 0.00 in0.0 mm 0.08 in2.0 mm
12:02 PM 48.9°F9.4°C 46.4°F8.0°C 91% 2.0 mph ENE3.2 kmh ENE 4.0 mph6.4 kmh 30.00 in1015.9 mb 0.02 in0.5 mm 0.00 in0.0 mm 0.08 in2.0 mm
12:04 PM 48.9°F9.4°C 46.4°F8.0°C 91% 1.0 mph E1.6 kmh E 3.0 mph4.8 kmh 30.00 in1015.9 mb 0.00 in0.0 mm 0.00 in0.0 mm 0.08 in2.0 mm
12:06 PM 48.9°F9.4°C 46.4°F8.0°C 91% Calm Calm 3.0 mph4.8 kmh 30.00 in1015.9 mb 0.00 in0.0 mm 0.00 in0.0 mm 0.08 in2.0 mm
12:08 PM 49.1°F9.5°C 46.6°F8.1°C 91% Calm Calm 3.0 mph4.8 kmh 30.00 in1015.9 mb 0.01 in0.3 mm 0.30 in7.6 mm 0.09 in2.3 mm
12:10 PM 49.1°F9.5°C 46.6°F8.1°C 91% 2.0 mph E3.2 kmh E 3.0 mph4.8 kmh 30.00 in1015.9 mb 0.01 in0.3 mm 0.00 in0.0 mm 0.09 in2.3 mm
12:12 PM 49.1°F9.5°C 46.6°F8.1°C 91% Calm Calm 3.0 mph4.8 kmh 29.99 in1015.6 mb 0.02 in0.5 mm 0.30 in7.6 mm 0.10 in2.5 mm
12:14 PM 49.2°F9.6°C 46.7°F8.2°C 91% 2.0 mph E3.2 kmh E 3.0 mph4.8 kmh 29.99 in1015.6 mb 0.02 in0.5 mm 0.00 in0.0 mm 0.10 in2.5 mm
12:16 PM 49.3°F9.6°C 46.8°F8.2°C 91% Calm Calm 3.0 mph4.8 kmh 29.99 in1015.6 mb 0.02 in0.5 mm 0.00 in0.0 mm 0.10 in2.5 mm
12:18 PM 49.3°F9.6°C 46.8°F8.2°C 91% Calm Calm 3.0 mph4.8 kmh 29.99 in1015.6 mb 0.03 in0.8 mm 0.30 in7.6 mm 0.11 in2.8 mm
12:20 PM 49.4°F9.7°C 46.9°F8.3°C 91% Calm Calm 3.0 mph4.8 kmh 29.99 in1015.6 mb 0.03 in0.8 mm 0.00 in0.0 mm 0.11 in2.8 mm
12:22 PM 49.5°F9.7°C 47.0°F8.3°C 91% Calm Calm 3.0 mph4.8 kmh 29.99 in1015.6 mb 0.03 in0.8 mm 0.00 in0.0 mm 0.11 in2.8 mm
12:23 PM 49.5°F9.7°C 47.0°F8.3°C 91% 2.0 mph E3.2 kmh E 3.0 mph4.8 kmh 29.99 in1015.6 mb 0.03 in0.8 mm 0.00 in0.0 mm 0.11 in2.8 mm
12:26 PM 49.5°F9.7°C 47.0°F8.3°C 91% 3.0 mph SW4.8 kmh SW 3.0 mph4.8 kmh 30.00 in1015.9 mb 0.03 in0.8 mm 0.00 in0.0 mm 0.11 in2.8 mm
12:28 PM 49.6°F9.8°C 47.1°F8.4°C 91% 1.0 mph SW1.6 kmh SW 5.0 mph8.0 kmh 29.99 in1015.6 mb 0.03 in0.8 mm 0.00 in0.0 mm 0.11 in2.8 mm
12:30 PM 49.6°F9.8°C 47.1°F8.4°C 91% 2.0 mph SW3.2 kmh SW 5.0 mph8.0 kmh 29.99 in1015.6 mb 0.04 in1.0 mm 0.30 in7.6 mm 0.12 in3.0 mm
12:32 PM 49.5°F9.7°C 47.0°F8.3°C 91% 2.0 mph SW3.2 kmh SW 5.0 mph8.0 kmh 29.99 in1015.6 mb 0.04 in1.0 mm 0.00 in0.0 mm 0.12 in3.0 mm
12:34 PM 49.6°F9.8°C 47.1°F8.4°C 91% 3.0 mph SW4.8 kmh SW 3.0 mph4.8 kmh 29.99 in1015.6 mb 0.04 in1.0 mm 0.00 in0.0 mm 0.12 in3.0 mm
12:36 PM 49.5°F9.7°C 47.0°F8.3°C 91% 1.0 mph SW1.6 kmh SW 3.0 mph4.8 kmh 29.98 in1015.2 mb 0.04 in1.0 mm 0.00 in0.0 mm 0.12 in3.0 mm
12:38 PM 49.6°F9.8°C 47.1°F8.4°C 91% Calm Calm 3.0 mph4.8 kmh 29.98 in1015.2 mb 0.04 in1.0 mm 0.00 in0.0 mm 0.12 in3.0 mm
12:40 PM 49.6°F9.8°C 47.1°F8.4°C 91% 2.0 mph SW3.2 kmh SW 3.0 mph4.8 kmh 29.98 in1015.2 mb 0.04 in1.0 mm 0.00 in0.0 mm 0.12 in3.0 mm
12:42 PM 49.6°F9.8°C 47.1°F8.4°C 91% Calm Calm 3.0 mph4.8 kmh 29.98 in1015.2 mb 0.04 in1.0 mm 0.00 in0.0 mm 0.12 in3.0 mm
12:44 PM 49.6°F9.8°C 47.1°F8.4°C 91% 1.0 mph SW1.6 kmh SW 3.0 mph4.8 kmh 29.98 in1015.2 mb 0.04 in1.0 mm 0.00 in0.0 mm 0.12 in3.0 mm
12:46 PM 49.6°F9.8°C 47.1°F8.4°C 91% Calm Calm 3.0 mph4.8 kmh 29.98 in1015.2 mb 0.04 in1.0 mm 0.00 in0.0 mm 0.12 in3.0 mm
12:48 PM 49.6°F9.8°C 47.1°F8.4°C 91% 1.0 mph SW1.6 kmh SW 3.0 mph4.8 kmh 29.98 in1015.2 mb 0.04 in1.0 mm 0.00 in0.0 mm 0.12 in3.0 mm
12:50 PM 49.6°F9.8°C 47.1°F8.4°C 91% Calm Calm 3.0 mph4.8 kmh 29.98 in1015.2 mb 0.04 in1.0 mm 0.00 in0.0 mm 0.12 in3.0 mm
12:52 PM 49.7°F9.8°C 47.2°F8.4°C 91% Calm Calm 3.0 mph4.8 kmh 29.99 in1015.6 mb 0.04 in1.0 mm 0.00 in0.0 mm 0.12 in3.0 mm
12:54 PM 49.7°F9.8°C 47.2°F8.4°C 91% Calm Calm 3.0 mph4.8 kmh 29.98 in1015.2 mb 0.04 in1.0 mm 0.00 in0.0 mm 0.12 in3.0 mm
12:56 PM 49.7°F9.8°C 47.2°F8.4°C 91% Calm Calm 3.0 mph4.8 kmh 29.98 in1015.2 mb 0.04 in1.0 mm 0.00 in0.0 mm 0.12 in3.0 mm
12:58 PM 49.7°F9.8°C 47.2°F8.4°C 91% Calm Calm 3.0 mph4.8 kmh 29.98 in1015.2 mb 0.04 in1.0 mm 0.00 in0.0 mm 0.12 in3.0 mm
01:00 PM 49.8°F9.9°C 47.3°F8.5°C 91% Calm Calm 3.0 mph4.8 kmh 29.98 in1015.2 mb 0.04 in1.0 mm 0.00 in0.0 mm 0.12 in3.0 mm
01:02 PM 49.7°F9.8°C 47.2°F8.4°C 91% Calm Calm 3.0 mph4.8 kmh 29.98 in1015.2 mb 0.04 in1.0 mm 0.00 in0.0 mm 0.12 in3.0 mm
01:04 PM 49.7°F9.8°C 47.2°F8.4°C 91% 1.0 mph SW1.6 kmh SW 2.0 mph3.2 kmh 29.97 in1014.9 mb 0.04 in1.0 mm 0.00 in0.0 mm 0.12 in3.0 mm
01:06 PM 49.8°F9.9°C 47.3°F8.5°C 91% Calm Calm 2.0 mph3.2 kmh 29.97 in1014.9 mb 0.04 in1.0 mm 0.00 in0.0 mm 0.12 in3.0 mm
01:08 PM 49.8°F9.9°C 47.3°F8.5°C 91% Calm Calm 2.0 mph3.2 kmh 29.97 in1014.9 mb 0.04 in1.0 mm 0.00 in0.0 mm 0.12 in3.0 mm
01:10 PM 49.9°F9.9°C 47.4°F8.6°C 91% 1.0 mph SW1.6 kmh SW 2.0 mph3.2 kmh 29.97 in1014.9 mb 0.04 in1.0 mm 0.00 in0.0 mm 0.12 in3.0 mm
01:12 PM 49.9°F9.9°C 47.4°F8.6°C 91% Calm Calm 2.0 mph3.2 kmh 29.98 in1015.2 mb 0.04 in1.0 mm 0.00 in0.0 mm 0.12 in3.0 mm
01:14 PM 49.9°F9.9°C 47.4°F8.6°C 91% Calm Calm 2.0 mph3.2 kmh 29.97 in1014.9 mb 0.05 in1.3 mm 0.30 in7.6 mm 0.13 in3.3 mm
01:16 PM 49.9°F9.9°C 47.4°F8.6°C 91% Calm Calm 2.0 mph3.2 kmh 29.97 in1014.9 mb 0.05 in1.3 mm 0.00 in0.0 mm 0.13 in3.3 mm
01:18 PM 50.0°F10.0°C 47.5°F8.6°C 91% Calm Calm 2.0 mph3.2 kmh 29.96 in1014.6 mb 0.05 in1.3 mm 0.00 in0.0 mm 0.13 in3.3 mm
01:20 PM 50.0°F10.0°C 47.5°F8.6°C 91% 2.0 mph E3.2 kmh E 3.0 mph4.8 kmh 29.95 in1014.2 mb 0.05 in1.3 mm 0.00 in0.0 mm 0.13 in3.3 mm
01:22 PM 50.0°F10.0°C 47.5°F8.6°C 91% 4.0 mph E6.4 kmh E 4.0 mph6.4 kmh 29.95 in1014.2 mb 0.05 in1.3 mm 0.00 in0.0 mm 0.13 in3.3 mm
01:24 PM 50.0°F10.0°C 47.5°F8.6°C 91% 1.0 mph E1.6 kmh E 4.0 mph6.4 kmh 29.94 in1013.9 mb 0.05 in1.3 mm 0.00 in0.0 mm 0.13 in3.3 mm
01:26 PM 50.0°F10.0°C 47.5°F8.6°C 91% 1.0 mph E1.6 kmh E 4.0 mph6.4 kmh 29.94 in1013.9 mb 0.05 in1.3 mm 0.00 in0.0 mm 0.13 in3.3 mm
01:28 PM 50.1°F10.1°C 47.6°F8.7°C 91% 3.0 mph E4.8 kmh E 4.0 mph6.4 kmh 29.94 in1013.9 mb 0.05 in1.3 mm 0.00 in0.0 mm 0.13 in3.3 mm
01:30 PM 50.1°F10.1°C 47.6°F8.7°C 91% 2.0 mph E3.2 kmh E 4.0 mph6.4 kmh 29.93 in1013.5 mb 0.05 in1.3 mm 0.00 in0.0 mm 0.13 in3.3 mm
01:32 PM 50.1°F10.1°C 47.6°F8.7°C 91% 3.0 mph E4.8 kmh E 4.0 mph6.4 kmh 29.93 in1013.5 mb 0.05 in1.3 mm 0.00 in0.0 mm 0.13 in3.3 mm
01:34 PM 50.2°F10.1°C 47.7°F8.7°C 91% 4.0 mph E6.4 kmh E 5.0 mph8.0 kmh 29.92 in1013.2 mb 0.01 in0.3 mm 0.00 in0.0 mm 0.13 in3.3 mm
01:36 PM 50.2°F10.1°C 47.7°F8.7°C 91% 3.0 mph E4.8 kmh E 5.0 mph8.0 kmh 29.92 in1013.2 mb 0.01 in0.3 mm 0.00 in0.0 mm 0.13 in3.3 mm
01:38 PM 50.4°F10.2°C 47.9°F8.8°C 91% 3.0 mph E4.8 kmh E 7.0 mph11.3 kmh 29.92 in1013.2 mb 0.01 in0.3 mm 0.00 in0.0 mm 0.13 in3.3 mm
01:40 PM 50.4°F10.2°C 47.9°F8.8°C 91% 2.0 mph E3.2 kmh E 7.0 mph11.3 kmh 29.92 in1013.2 mb 0.01 in0.3 mm 0.00 in0.0 mm 0.13 in3.3 mm
01:42 PM 50.6°F10.3°C 48.1°F8.9°C 91% 3.0 mph E4.8 kmh E 7.0 mph11.3 kmh 29.92 in1013.2 mb 0.01 in0.3 mm 0.00 in0.0 mm 0.13 in3.3 mm
01:44 PM 50.6°F10.3°C 48.1°F8.9°C 91% 4.0 mph ENE6.4 kmh ENE 7.0 mph11.3 kmh 29.92 in1013.2 mb 0.01 in0.3 mm 0.00 in0.0 mm 0.13 in3.3 mm
01:46 PM 50.6°F10.3°C 48.1°F8.9°C 91% 2.0 mph ENE3.2 kmh ENE 7.0 mph11.3 kmh 29.92 in1013.2 mb 0.01 in0.3 mm 0.00 in0.0 mm 0.13 in3.3 mm
01:48 PM 50.7°F10.4°C 48.2°F9.0°C 91% 3.0 mph ENE4.8 kmh ENE 7.0 mph11.3 kmh 29.92 in1013.2 mb 0.01 in0.3 mm 0.00 in0.0 mm 0.13 in3.3 mm
01:50 PM 50.8°F10.4°C 48.3°F9.1°C 91% 3.0 mph ESE4.8 kmh ESE 7.0 mph11.3 kmh 29.91 in1012.9 mb 0.01 in0.3 mm 0.00 in0.0 mm 0.13 in3.3 mm
01:52 PM 50.9°F10.5°C 48.4°F9.1°C 91% 4.0 mph E6.4 kmh E 8.0 mph12.9 kmh 29.90 in1012.5 mb 0.01 in0.3 mm 0.00 in0.0 mm 0.13 in3.3 mm
01:54 PM 50.8°F10.4°C 48.3°F9.1°C 91% 4.0 mph SE6.4 kmh SE 8.0 mph12.9 kmh 29.91 in1012.9 mb 0.01 in0.3 mm 0.00 in0.0 mm 0.13 in3.3 mm
01:56 PM 50.9°F10.5°C 48.4°F9.1°C 91% 4.0 mph E6.4 kmh E 8.0 mph12.9 kmh 29.91 in1012.9 mb 0.01 in0.3 mm 0.00 in0.0 mm 0.13 in3.3 mm
01:58 PM 50.9°F10.5°C 48.4°F9.1°C 91% 3.0 mph E4.8 kmh E 8.0 mph12.9 kmh 29.91 in1012.9 mb 0.01 in0.3 mm 0.00 in0.0 mm 0.13 in3.3 mm
02:00 PM 50.9°F10.5°C 48.4°F9.1°C 91% 1.0 mph E1.6 kmh E 8.0 mph12.9 kmh 29.91 in1012.9 mb 0.01 in0.3 mm 0.00 in0.0 mm 0.13 in3.3 mm
02:02 PM 50.9°F10.5°C 48.4°F9.1°C 91% 2.0 mph E3.2 kmh E 8.0 mph12.9 kmh 29.91 in1012.9 mb 0.01 in0.3 mm 0.00 in0.0 mm 0.13 in3.3 mm
02:04 PM 50.9°F10.5°C 48.4°F9.1°C 91% 2.0 mph E3.2 kmh E 5.0 mph8.0 kmh 29.92 in1013.2 mb 0.01 in0.3 mm 0.00 in0.0 mm 0.13 in3.3 mm
02:06 PM 51.0°F10.6°C 48.5°F9.2°C 91% 4.0 mph E6.4 kmh E 5.0 mph8.0 kmh 29.91 in1012.9 mb 0.01 in0.3 mm 0.00 in0.0 mm 0.13 in3.3 mm
02:08 PM 51.0°F10.6°C 48.5°F9.2°C 91% 3.0 mph E4.8 kmh E 6.0 mph9.7 kmh 29.91 in1012.9 mb 0.01 in0.3 mm 0.00 in0.0 mm 0.13 in3.3 mm
02:10 PM 51.0°F10.6°C 48.5°F9.2°C 91% Calm Calm 6.0 mph9.7 kmh 29.90 in1012.5 mb 0.01 in0.3 mm 0.00 in0.0 mm 0.13 in3.3 mm
02:12 PM 51.0°F10.6°C 48.5°F9.2°C 91% 3.0 mph E4.8 kmh E 6.0 mph9.7 kmh 29.90 in1012.5 mb 0.01 in0.3 mm 0.00 in0.0 mm 0.13 in3.3 mm
02:14 PM 51.1°F10.6°C 48.6°F9.2°C 91% 5.0 mph E8.0 kmh E 6.0 mph9.7 kmh 29.90 in1012.5 mb 0.01 in0.3 mm 0.00 in0.0 mm 0.13 in3.3 mm
02:16 PM 51.1°F10.6°C 48.6°F9.2°C 91% 3.0 mph ENE4.8 kmh ENE 8.0 mph12.9 kmh 29.89 in1012.2 mb 0.01 in0.3 mm 0.00 in0.0 mm 0.13 in3.3 mm
02:18 PM 51.1°F10.6°C 48.6°F9.2°C 91% 2.0 mph NE3.2 kmh NE 8.0 mph12.9 kmh 29.90 in1012.5 mb 0.01 in0.3 mm 0.00 in0.0 mm 0.13 in3.3 mm
02:20 PM 51.2°F10.7°C 48.7°F9.3°C 91% 2.0 mph NE3.2 kmh NE 8.0 mph12.9 kmh 29.90 in1012.5 mb 0.01 in0.3 mm 0.00 in0.0 mm 0.13 in3.3 mm
02:22 PM 51.3°F10.7°C 48.8°F9.3°C 91% 2.0 mph NW3.2 kmh NW 8.0 mph12.9 kmh 29.91 in1012.9 mb 0.01 in0.3 mm 0.00 in0.0 mm 0.13 in3.3 mm
02:24 PM 51.3°F10.7°C 48.8°F9.3°C 91% Calm Calm 8.0 mph12.9 kmh 29.90 in1012.5 mb 0.01 in0.3 mm 0.00 in0.0 mm 0.13 in3.3 mm
02:26 PM 51.5°F10.8°C 49.0°F9.4°C 91% Calm Calm 8.0 mph12.9 kmh 29.90 in1012.5 mb 0.01 in0.3 mm 0.00 in0.0 mm 0.13 in3.3 mm
02:28 PM 51.5°F10.8°C 49.0°F9.4°C 91% Calm Calm 8.0 mph12.9 kmh 29.90 in1012.5 mb 0.01 in0.3 mm 0.00 in0.0 mm 0.13 in3.3 mm
02:30 PM 51.5°F10.8°C 49.0°F9.4°C 91% Calm Calm 8.0 mph12.9 kmh 29.90 in1012.5 mb 0.01 in0.3 mm 0.00 in0.0 mm 0.13 in3.3 mm
02:32 PM 51.6°F10.9°C 49.1°F9.5°C 91% 1.0 mph NW1.6 kmh NW 8.0 mph12.9 kmh 29.89 in1012.2 mb 0.01 in0.3 mm 0.00 in0.0 mm 0.13 in3.3 mm
02:34 PM 51.5°F10.8°C 49.0°F9.4°C 91% 1.0 mph NW1.6 kmh NW 3.0 mph4.8 kmh 29.89 in1012.2 mb 0.00 in0.0 mm 0.00 in0.0 mm 0.13 in3.3 mm
02:36 PM 51.6°F10.9°C 49.1°F9.5°C 91% 3.0 mph NW4.8 kmh NW 3.0 mph4.8 kmh 29.89 in1012.2 mb 0.00 in0.0 mm 0.00 in0.0 mm 0.13 in3.3 mm
02:38 PM 51.6°F10.9°C 49.1°F9.5°C 91% 3.0 mph E4.8 kmh E 4.0 mph6.4 kmh 29.88 in1011.9 mb 0.00 in0.0 mm 0.00 in0.0 mm 0.13 in3.3 mm
02:40 PM 51.6°F10.9°C 49.1°F9.5°C 91% 2.0 mph E3.2 kmh E 4.0 mph6.4 kmh 29.88 in1011.9 mb 0.00 in0.0 mm 0.00 in0.0 mm 0.13 in3.3 mm
02:42 PM 51.6°F10.9°C 49.1°F9.5°C 91% 4.0 mph E6.4 kmh E 4.0 mph6.4 kmh 29.88 in1011.9 mb 0.00 in0.0 mm 0.00 in0.0 mm 0.13 in3.3 mm
02:44 PM 51.6°F10.9°C 49.1°F9.5°C 91% 2.0 mph ESE3.2 kmh ESE 6.0 mph9.7 kmh 29.87 in1011.5 mb 0.00 in0.0 mm 0.00 in0.0 mm 0.13 in3.3 mm
02:46 PM 51.6°F10.9°C 49.1°F9.5°C 91% 6.0 mph E9.7 kmh E 8.0 mph12.9 kmh 29.86 in1011.2 mb 0.00 in0.0 mm 0.00 in0.0 mm 0.13 in3.3 mm
02:48 PM 51.7°F10.9°C 49.2°F9.6°C 91% 3.0 mph SE4.8 kmh SE 8.0 mph12.9 kmh 29.86 in1011.2 mb 0.00 in0.0 mm 0.00 in0.0 mm 0.13 in3.3 mm
02:50 PM 51.7°F10.9°C 49.2°F9.6°C 91% 2.0 mph ESE3.2 kmh ESE 8.0 mph12.9 kmh 29.86 in1011.2 mb 0.00 in0.0 mm 0.00 in0.0 mm 0.13 in3.3 mm
02:52 PM 51.8°F11.0°C 49.3°F9.6°C 91% 3.0 mph E4.8 kmh E 8.0 mph12.9 kmh 29.85 in1010.8 mb 0.00 in0.0 mm 0.00 in0.0 mm 0.13 in3.3 mm
02:54 PM 51.8°F11.0°C 49.3°F9.6°C 91% 1.0 mph ESE1.6 kmh ESE 9.0 mph14.5 kmh 29.85 in1010.8 mb 0.00 in0.0 mm 0.00 in0.0 mm 0.13 in3.3 mm
02:56 PM 51.9°F11.1°C 49.4°F9.7°C 91% 3.0 mph E4.8 kmh E 9.0 mph14.5 kmh 29.85 in1010.8 mb 0.00 in0.0 mm 0.00 in0.0 mm 0.13 in3.3 mm
02:58 PM 51.9°F11.1°C 49.4°F9.7°C 91% 6.0 mph ESE9.7 kmh ESE 9.0 mph14.5 kmh 29.85 in1010.8 mb 0.00 in0.0 mm 0.00 in0.0 mm 0.13 in3.3 mm
03:00 PM 52.0°F11.1°C 49.5°F9.7°C 91% Calm Calm 9.0 mph14.5 kmh 29.85 in1010.8 mb 0.00 in0.0 mm 0.00 in0.0 mm 0.13 in3.3 mm
03:02 PM 52.1°F11.2°C 49.6°F9.8°C 91% 1.0 mph SE1.6 kmh SE 9.0 mph14.5 kmh 29.85 in1010.8 mb 0.00 in0.0 mm 0.00 in0.0 mm 0.13 in3.3 mm
03:04 PM 52.2°F11.2°C 49.7°F9.8°C 91% 6.0 mph ESE9.7 kmh ESE 8.0 mph12.9 kmh 29.85 in1010.8 mb 0.00 in0.0 mm 0.00 in0.0 mm 0.13 in3.3 mm
03:06 PM 52.2°F11.2°C 49.7°F9.8°C 91% 3.0 mph SE4.8 kmh SE 8.0 mph12.9 kmh 29.85 in1010.8 mb 0.00 in0.0 mm 0.00 in0.0 mm 0.13 in3.3 mm
03:08 PM 52.2°F11.2°C 49.7°F9.8°C 91% 2.0 mph ESE3.2 kmh ESE 8.0 mph12.9 kmh 29.85 in1010.8 mb 0.00 in0.0 mm 0.00 in0.0 mm 0.13 in3.3 mm
03:10 PM 52.3°F11.3°C 49.8°F9.9°C 91% Calm Calm 8.0 mph12.9 kmh 29.85 in1010.8 mb 0.00 in0.0 mm 0.00 in0.0 mm 0.13 in3.3 mm
03:12 PM 52.2°F11.2°C 49.7°F9.8°C 91% 2.0 mph SE3.2 kmh SE 8.0 mph12.9 kmh 29.85 in1010.8 mb 0.00 in0.0 mm 0.00 in0.0 mm 0.13 in3.3 mm
03:14 PM 52.3°F11.3°C 49.8°F9.9°C 91% 1.0 mph SE1.6 kmh SE 8.0 mph12.9 kmh 29.85 in1010.8 mb 0.00 in0.0 mm 0.00 in0.0 mm 0.13 in3.3 mm
03:16 PM 52.4°F11.3°C 49.9°F9.9°C 91% 1.0 mph ESE1.6 kmh ESE 8.0 mph12.9 kmh 29.85 in1010.8 mb 0.00 in0.0 mm 0.00 in0.0 mm 0.13 in3.3 mm
03:18 PM 52.4°F11.3°C 49.9°F9.9°C 91% 3.0 mph SE4.8 kmh SE 8.0 mph12.9 kmh 29.85 in1010.8 mb 0.00 in0.0 mm 0.00 in0.0 mm 0.13 in3.3 mm
03:20 PM 52.5°F11.4°C 50.0°F10.0°C 91% 1.0 mph ESE1.6 kmh ESE 8.0 mph12.9 kmh 29.85 in1010.8 mb 0.00 in0.0 mm 0.00 in0.0 mm 0.13 in3.3 mm
03:22 PM 52.5°F11.4°C 50.0°F10.0°C 91% 3.0 mph SE4.8 kmh SE 8.0 mph12.9 kmh 29.85 in1010.8 mb 0.00 in0.0 mm 0.00 in0.0 mm 0.13 in3.3 mm
03:24 PM 52.6°F11.4°C 50.1°F10.1°C 91% 8.0 mph E12.9 kmh E 8.0 mph12.9 kmh 29.84 in1010.5 mb 0.00 in0.0 mm 0.00 in0.0 mm 0.13 in3.3 mm
03:26 PM 52.6°F11.4°C 50.1°F10.1°C 91% 1.0 mph E1.6 kmh E 8.0 mph12.9 kmh 29.84 in1010.5 mb 0.00 in0.0 mm 0.00 in0.0 mm 0.13 in3.3 mm
03:28 PM 52.7°F11.5°C 50.2°F10.1°C 91% 1.0 mph ESE1.6 kmh ESE 8.0 mph12.9 kmh 29.84 in1010.5 mb 0.00 in0.0 mm 0.00 in0.0 mm 0.13 in3.3 mm
03:30 PM 52.7°F11.5°C 50.2°F10.1°C 91% 2.0 mph SE3.2 kmh SE 8.0 mph12.9 kmh 29.84 in1010.5 mb 0.00 in0.0 mm 0.00 in0.0 mm 0.13 in3.3 mm
03:32 PM 52.8°F11.6°C 50.3°F10.2°C 91% 2.0 mph SE3.2 kmh SE 8.0 mph12.9 kmh 29.85 in1010.8 mb 0.00 in0.0 mm 0.00 in0.0 mm 0.13 in3.3 mm
03:34 PM 52.8°F11.6°C 50.3°F10.2°C 91% 2.0 mph SE3.2 kmh SE 4.0 mph6.4 kmh 29.85 in1010.8 mb 0.00 in0.0 mm 0.00 in0.0 mm 0.13 in3.3 mm
03:36 PM 52.9°F11.6°C 50.4°F10.2°C 91% 1.0 mph SE1.6 kmh SE 7.0 mph11.3 kmh 29.85 in1010.8 mb 0.00 in0.0 mm 0.00 in0.0 mm 0.13 in3.3 mm
03:38 PM 52.9°F11.6°C 50.4°F10.2°C 91% 4.0 mph SSE6.4 kmh SSE 8.0 mph12.9 kmh 29.85 in1010.8 mb 0.00 in0.0 mm 0.00 in0.0 mm 0.13 in3.3 mm
03:40 PM 52.9°F11.6°C 50.4°F10.2°C 91% 1.0 mph SE1.6 kmh SE 8.0 mph12.9 kmh 29.85 in1010.8 mb 0.00 in0.0 mm 0.00 in0.0 mm 0.13 in3.3 mm
03:42 PM 52.9°F11.6°C 50.4°F10.2°C 91% Calm Calm 8.0 mph12.9 kmh 29.85 in1010.8 mb 0.00 in0.0 mm 0.00 in0.0 mm 0.13 in3.3 mm
03:44 PM 53.0°F11.7°C 50.5°F10.3°C 91% 1.0 mph SE1.6 kmh SE 8.0 mph12.9 kmh 29.84 in1010.5 mb 0.00 in0.0 mm 0.00 in0.0 mm 0.13 in3.3 mm
03:45 PM 53.0°F11.7°C 50.5°F10.3°C 91% Calm Calm 8.0 mph12.9 kmh 29.84 in1010.5 mb 0.00 in0.0 mm 0.00 in0.0 mm 0.13 in3.3 mm
03:48 PM 53.1°F11.7°C 50.6°F10.3°C 91% 2.0 mph E3.2 kmh E 8.0 mph12.9 kmh 29.84 in1010.5 mb 0.00 in0.0 mm 0.00 in0.0 mm 0.13 in3.3 mm
03:50 PM 53.1°F11.7°C 50.6°F10.3°C 91% Calm Calm 8.0 mph12.9 kmh 29.84 in1010.5 mb 0.00 in0.0 mm 0.00 in0.0 mm 0.13 in3.3 mm
03:51 PM 53.2°F11.8°C 50.7°F10.4°C 91% 1.0 mph E1.6 kmh E 8.0 mph12.9 kmh 29.84 in1010.5 mb 0.00 in0.0 mm 0.00 in0.0 mm 0.13 in3.3 mm
03:54 PM 53.2°F11.8°C 50.7°F10.4°C 91% Calm Calm 8.0 mph12.9 kmh 29.84 in1010.5 mb 0.00 in0.0 mm 0.00 in0.0 mm 0.13 in3.3 mm
03:56 PM 53.1°F11.7°C 50.6°F10.3°C 91% 2.0 mph SE3.2 kmh SE 8.0 mph12.9 kmh 29.84 in1010.5 mb 0.00 in0.0 mm 0.00 in0.0 mm 0.13 in3.3 mm
03:58 PM 53.2°F11.8°C 50.7°F10.4°C 91% Calm Calm 8.0 mph12.9 kmh 29.84 in1010.5 mb 0.00 in0.0 mm 0.00 in0.0 mm 0.13 in3.3 mm
04:00 PM 53.2°F11.8°C 50.7°F10.4°C 91% Calm Calm 8.0 mph12.9 kmh 29.84 in1010.5 mb 0.00 in0.0 mm 0.00 in0.0 mm 0.13 in3.3 mm
04:02 PM 53.3°F11.8°C 50.7°F10.4°C 91% 2.0 mph E3.2 kmh E 8.0 mph12.9 kmh 29.84 in1010.5 mb 0.01 in0.3 mm 0.30 in7.6 mm 0.14 in3.6 mm
04:04 PM 53.3°F11.8°C 50.7°F10.4°C 91% 2.0 mph SSE3.2 kmh SSE 4.0 mph6.4 kmh 29.84 in1010.5 mb 0.01 in0.3 mm 0.00 in0.0 mm 0.14 in3.6 mm
04:06 PM 53.3°F11.8°C 50.7°F10.4°C 91% 3.0 mph SE4.8 kmh SE 4.0 mph6.4 kmh 29.84 in1010.5 mb 0.01 in0.3 mm 0.00 in0.0 mm 0.14 in3.6 mm
04:08 PM 53.3°F11.8°C 50.7°F10.4°C 91% Calm Calm 4.0 mph6.4 kmh 29.84 in1010.5 mb 0.01 in0.3 mm 0.00 in0.0 mm 0.14 in3.6 mm
04:10 PM 53.4°F11.9°C 50.8°F10.4°C 91% 1.0 mph E1.6 kmh E 6.0 mph9.7 kmh 29.84 in1010.5 mb 0.01 in0.3 mm 0.00 in0.0 mm 0.14 in3.6 mm
04:12 PM 53.4°F11.9°C 50.8°F10.4°C 91% Calm Calm 6.0 mph9.7 kmh 29.84 in1010.5 mb 0.01 in0.3 mm 0.00 in0.0 mm 0.14 in3.6 mm
04:14 PM 53.5°F11.9°C 50.9°F10.5°C 91% Calm Calm 6.0 mph9.7 kmh 29.84 in1010.5 mb 0.01 in0.3 mm 0.00 in0.0 mm 0.14 in3.6 mm
04:16 PM 53.5°F11.9°C 50.9°F10.5°C 91% Calm Calm 6.0 mph9.7 kmh 29.84 in1010.5 mb 0.01 in0.3 mm 0.00 in0.0 mm 0.14 in3.6 mm
04:18 PM 53.5°F11.9°C 50.9°F10.5°C 91% Calm Calm 6.0 mph9.7 kmh 29.84 in1010.5 mb 0.01 in0.3 mm 0.00 in0.0 mm 0.14 in3.6 mm
04:20 PM 53.5°F11.9°C 50.9°F10.5°C 91% Calm Calm 6.0 mph9.7 kmh 29.84 in1010.5 mb 0.01 in0.3 mm 0.00 in0.0 mm 0.14 in3.6 mm
04:22 PM 53.6°F12.0°C 51.0°F10.6°C 91% Calm Calm 6.0 mph9.7 kmh 29.84 in1010.5 mb 0.01 in0.3 mm 0.00 in0.0 mm 0.14 in3.6 mm
04:24 PM 53.6°F12.0°C 51.0°F10.6°C 91% 1.0 mph E1.6 kmh E 6.0 mph9.7 kmh 29.84 in1010.5 mb 0.01 in0.3 mm 0.00 in0.0 mm 0.14 in3.6 mm
04:26 PM 53.6°F12.0°C 51.0°F10.6°C 91% 2.0 mph E3.2 kmh E 6.0 mph9.7 kmh 29.83 in1010.2 mb 0.01 in0.3 mm 0.00 in0.0 mm 0.14 in3.6 mm
04:28 PM 53.7°F12.1°C 51.1°F10.6°C 91% Calm Calm 6.0 mph9.7 kmh 29.83 in1010.2 mb 0.01 in0.3 mm 0.00 in0.0 mm 0.14 in3.6 mm
04:30 PM 53.7°F12.1°C 51.1°F10.6°C 91% Calm Calm 6.0 mph9.7 kmh 29.83 in1010.2 mb 0.01 in0.3 mm 0.00 in0.0 mm 0.14 in3.6 mm
04:32 PM 53.7°F12.1°C 51.1°F10.6°C 91% Calm Calm 6.0 mph9.7 kmh 29.83 in1010.2 mb 0.01 in0.3 mm 0.00 in0.0 mm 0.14 in3.6 mm
04:34 PM 53.7°F12.1°C 51.1°F10.6°C 91% Calm Calm 1.0 mph1.6 kmh 29.83 in1010.2 mb 0.01 in0.3 mm 0.00 in0.0 mm 0.14 in3.6 mm
04:36 PM 53.8°F12.1°C 51.2°F10.7°C 91% 2.0 mph E3.2 kmh E 2.0 mph3.2 kmh 29.83 in1010.2 mb 0.01 in0.3 mm 0.00 in0.0 mm 0.14 in3.6 mm
04:38 PM 53.8°F12.1°C 51.2°F10.7°C 91% 3.0 mph E4.8 kmh E 3.0 mph4.8 kmh 29.83 in1010.2 mb 0.01 in0.3 mm 0.00 in0.0 mm 0.14 in3.6 mm
04:40 PM 53.8°F12.1°C 51.2°F10.7°C 91% 1.0 mph E1.6 kmh E 3.0 mph4.8 kmh 29.83 in1010.2 mb 0.01 in0.3 mm 0.00 in0.0 mm 0.14 in3.6 mm
04:42 PM 53.8°F12.1°C 51.2°F10.7°C 91% 2.0 mph E3.2 kmh E 3.0 mph4.8 kmh 29.83 in1010.2 mb 0.01 in0.3 mm 0.00 in0.0 mm 0.14 in3.6 mm
04:44 PM 53.9°F12.2°C 51.3°F10.7°C 91% 1.0 mph E1.6 kmh E 3.0 mph4.8 kmh 29.83 in1010.2 mb 0.01 in0.3 mm 0.00 in0.0 mm 0.14 in3.6 mm
04:46 PM 54.0°F12.2°C 51.4°F10.8°C 91% 1.0 mph E1.6 kmh E 3.0 mph4.8 kmh 29.83 in1010.2 mb 0.01 in0.3 mm 0.00 in0.0 mm 0.14 in3.6 mm
04:48 PM 54.0°F12.2°C 51.4°F10.8°C 91% Calm Calm 3.0 mph4.8 kmh 29.83 in1010.2 mb 0.01 in0.3 mm 0.00 in0.0 mm 0.14 in3.6 mm
04:50 PM 54.0°F12.2°C 51.4°F10.8°C 91% Calm Calm 3.0 mph4.8 kmh 29.82 in1009.8 mb 0.01 in0.3 mm 0.00 in0.0 mm 0.14 in3.6 mm
04:52 PM 54.0°F12.2°C 51.4°F10.8°C 91% Calm Calm 3.0 mph4.8 kmh 29.83 in1010.2 mb 0.01 in0.3 mm 0.00 in0.0 mm 0.14 in3.6 mm
04:54 PM 54.0°F12.2°C 51.4°F10.8°C 91% Calm Calm 3.0 mph4.8 kmh 29.83 in1010.2 mb 0.01 in0.3 mm 0.00 in0.0 mm 0.14 in3.6 mm
04:56 PM 54.0°F12.2°C 51.4°F10.8°C 91% Calm Calm 3.0 mph4.8 kmh 29.83 in1010.2 mb 0.01 in0.3 mm 0.00 in0.0 mm 0.14 in3.6 mm
04:58 PM 54.0°F12.2°C 51.4°F10.8°C 91% Calm Calm 3.0 mph4.8 kmh 29.82 in1009.8 mb 0.01 in0.3 mm 0.00 in0.0 mm 0.14 in3.6 mm
05:00 PM 54.0°F12.2°C 51.4°F10.8°C 91% Calm Calm 3.0 mph4.8 kmh 29.83 in1010.2 mb 0.01 in0.3 mm 0.00 in0.0 mm 0.14 in3.6 mm
05:02 PM 54.1°F12.3°C 51.5°F10.8°C 91% Calm Calm 3.0 mph4.8 kmh 29.82 in1009.8 mb 0.01 in0.3 mm 0.00 in0.0 mm 0.14 in3.6 mm
05:04 PM 54.1°F12.3°C 51.5°F10.8°C 91% Calm Calm -- 29.82 in1009.8 mb 0.00 in0.0 mm 0.00 in0.0 mm 0.14 in3.6 mm
05:06 PM 54.1°F12.3°C 51.5°F10.8°C 91% Calm Calm -- 29.81 in1009.5 mb 0.00 in0.0 mm 0.00 in0.0 mm 0.14 in3.6 mm
05:08 PM 54.1°F12.3°C 51.5°F10.8°C 91% Calm Calm -- 29.82 in1009.8 mb 0.00 in0.0 mm 0.00 in0.0 mm 0.14 in3.6 mm
05:10 PM 54.2°F12.3°C 51.6°F10.9°C 91% Calm Calm -- 29.82 in1009.8 mb 0.00 in0.0 mm 0.00 in0.0 mm 0.14 in3.6 mm
05:12 PM 54.2°F12.3°C 51.6°F10.9°C 91% Calm Calm -- 29.81 in1009.5 mb 0.00 in0.0 mm 0.00 in0.0 mm 0.14 in3.6 mm
05:14 PM 54.2°F12.3°C 51.6°F10.9°C 91% Calm Calm -- 29.82 in1009.8 mb 0.00 in0.0 mm 0.00 in0.0 mm 0.14 in3.6 mm
05:16 PM 54.3°F12.4°C 51.7°F10.9°C 91% Calm Calm -- 29.81 in1009.5 mb 0.00 in0.0 mm 0.00 in0.0 mm 0.14 in3.6 mm
05:18 PM 54.3°F12.4°C 51.7°F10.9°C 91% Calm Calm -- 29.81 in1009.5 mb 0.00 in0.0 mm 0.00 in0.0 mm 0.14 in3.6 mm
05:20 PM 54.3°F12.4°C 51.7°F10.9°C 91% Calm Calm -- 29.81 in1009.5 mb 0.00 in0.0 mm 0.00 in0.0 mm 0.14 in3.6 mm
05:22 PM 54.3°F12.4°C 51.7°F10.9°C 91% Calm Calm -- 29.81 in1009.5 mb 0.00 in0.0 mm 0.00 in0.0 mm 0.14 in3.6 mm
05:24 PM 54.4°F12.4°C 51.8°F11.0°C 91% Calm Calm -- 29.81 in1009.5 mb 0.00 in0.0 mm 0.00 in0.0 mm 0.14 in3.6 mm
05:26 PM 54.5°F12.5°C 51.9°F11.1°C 91% Calm Calm -- 29.81 in1009.5 mb 0.00 in0.0 mm 0.00 in0.0 mm 0.14 in3.6 mm
05:27 PM 54.5°F12.5°C 51.9°F11.1°C 91% Calm Calm -- 29.81 in1009.5 mb 0.00 in0.0 mm 0.00 in0.0 mm 0.14 in3.6 mm
05:30 PM 54.5°F12.5°C 51.9°F11.1°C 91% Calm Calm -- 29.82 in1009.8 mb 0.00 in0.0 mm 0.00 in0.0 mm 0.14 in3.6 mm
05:32 PM 54.5°F12.5°C 51.9°F11.1°C 91% Calm Calm -- 29.82 in1009.8 mb 0.00 in0.0 mm 0.00 in0.0 mm 0.14 in3.6 mm
05:34 PM 54.5°F12.5°C 51.9°F11.1°C 91% Calm Calm -- 29.82 in1009.8 mb 0.00 in0.0 mm 0.00 in0.0 mm 0.14 in3.6 mm
05:36 PM 54.5°F12.5°C 51.9°F11.1°C 91% Calm Calm -- 29.82 in1009.8 mb 0.00 in0.0 mm 0.00 in0.0 mm 0.14 in3.6 mm
05:38 PM 54.6°F12.6°C 52.0°F11.1°C 91% Calm Calm -- 29.81 in1009.5 mb 0.00 in0.0 mm 0.00 in0.0 mm 0.14 in3.6 mm
05:40 PM 54.6°F12.6°C 52.0°F11.1°C 91% Calm Calm -- 29.81 in1009.5 mb 0.00 in0.0 mm 0.00 in0.0 mm 0.14 in3.6 mm
05:42 PM 54.7°F12.6°C 52.1°F11.2°C 91% Calm Calm -- 29.81 in1009.5 mb 0.00 in0.0 mm 0.00 in0.0 mm 0.14 in3.6 mm
05:44 PM 54.7°F12.6°C 52.1°F11.2°C 91% Calm Calm -- 29.81 in1009.5 mb 0.00 in0.0 mm 0.00 in0.0 mm 0.14 in3.6 mm
05:46 PM 54.8°F12.7°C 52.2°F11.2°C 91% Calm Calm -- 29.81 in1009.5 mb 0.00 in0.0 mm 0.00 in0.0 mm 0.14 in3.6 mm
05:48 PM 54.8°F12.7°C 52.2°F11.2°C 91% Calm Calm -- 29.81 in1009.5 mb 0.00 in0.0 mm 0.00 in0.0 mm 0.14 in3.6 mm
05:50 PM 54.8°F12.7°C 52.2°F11.2°C 91% Calm Calm -- 29.81 in1009.5 mb 0.00 in0.0 mm 0.00 in0.0 mm 0.14 in3.6 mm
05:52 PM 54.9°F12.7°C 52.3°F11.3°C 91% Calm Calm -- 29.81 in1009.5 mb 0.00 in0.0 mm 0.00 in0.0 mm 0.14 in3.6 mm
05:54 PM 54.9°F12.7°C 52.3°F11.3°C 91% Calm Calm -- 29.81 in1009.5 mb 0.00 in0.0 mm 0.00 in0.0 mm 0.14 in3.6 mm
05:56 PM 54.9°F12.7°C 52.3°F11.3°C 91% Calm Calm -- 29.82 in1009.8 mb 0.00 in0.0 mm 0.00 in0.0 mm 0.14 in3.6 mm
05:58 PM 54.9°F12.7°C 52.3°F11.3°C 91% Calm Calm -- 29.82 in1009.8 mb 0.00 in0.0 mm 0.00 in0.0 mm 0.14 in3.6 mm
06:00 PM 55.0°F12.8°C 52.4°F11.3°C 91% Calm Calm -- 29.82 in1009.8 mb 0.00 in0.0 mm 0.00 in0.0 mm 0.14 in3.6 mm
06:02 PM 55.0°F12.8°C 52.4°F11.3°C 91% Calm Calm -- 29.82 in1009.8 mb 0.00 in0.0 mm 0.00 in0.0 mm 0.14 in3.6 mm
06:04 PM 55.1°F12.8°C 52.5°F11.4°C 91% Calm Calm -- 29.82 in1009.8 mb 0.00 in0.0 mm 0.00 in0.0 mm 0.14 in3.6 mm
06:06 PM 55.2°F12.9°C 52.6°F11.4°C 91% Calm Calm -- 29.82 in1009.8 mb 0.00 in0.0 mm 0.00 in0.0 mm 0.14 in3.6 mm
06:07 PM 55.2°F12.9°C 52.6°F11.4°C 91% Calm Calm -- 29.82 in1009.8 mb 0.00 in0.0 mm 0.00 in0.0 mm 0.14 in3.6 mm
06:10 PM 55.2°F12.9°C 52.6°F11.4°C 91% Calm Calm -- 29.82 in1009.8 mb 0.00 in0.0 mm 0.00 in0.0 mm 0.14 in3.6 mm
06:12 PM 55.3°F12.9°C 52.7°F11.5°C 91% Calm Calm -- 29.82 in1009.8 mb 0.00 in0.0 mm 0.00 in0.0 mm 0.14 in3.6 mm
06:14 PM 55.3°F12.9°C 52.7°F11.5°C 91% Calm Calm -- 29.82 in1009.8 mb 0.00 in0.0 mm 0.00 in0.0 mm 0.14 in3.6 mm
06:16 PM 55.5°F13.1°C 52.9°F11.6°C 91% Calm Calm -- 29.82 in1009.8 mb 0.00 in0.0 mm 0.00 in0.0 mm 0.14 in3.6 mm
06:18 PM 55.6°F13.1°C 53.0°F11.7°C 91% Calm Calm -- 29.82 in1009.8 mb 0.00 in0.0 mm 0.00 in0.0 mm 0.14 in3.6 mm
06:20 PM 55.8°F13.2°C 53.2°F11.8°C 91% Calm Calm -- 29.81 in1009.5 mb 0.00 in0.0 mm 0.00 in0.0 mm 0.14 in3.6 mm
06:22 PM 55.9°F13.3°C 53.3°F11.8°C 91% 2.0 mph E3.2 kmh E 2.0 mph3.2 kmh 29.81 in1009.5 mb 0.00 in0.0 mm 0.00 in0.0 mm 0.14 in3.6 mm
06:24 PM 56.0°F13.3°C 53.7°F12.1°C 92% 1.0 mph E1.6 kmh E 2.0 mph3.2 kmh 29.81 in1009.5 mb 0.01 in0.3 mm 0.30 in7.6 mm 0.15 in3.8 mm
06:26 PM 56.1°F13.4°C 53.8°F12.1°C 92% 1.0 mph E1.6 kmh E 2.0 mph3.2 kmh 29.81 in1009.5 mb 0.01 in0.3 mm 0.00 in0.0 mm 0.15 in3.8 mm
06:28 PM 56.1°F13.4°C 53.8°F12.1°C 92% Calm Calm 2.0 mph3.2 kmh 29.81 in1009.5 mb 0.01 in0.3 mm 0.00 in0.0 mm 0.15 in3.8 mm
06:30 PM 56.2°F13.4°C 53.9°F12.2°C 92% Calm Calm 2.0 mph3.2 kmh 29.81 in1009.5 mb 0.01 in0.3 mm 0.00 in0.0 mm 0.15 in3.8 mm
06:32 PM 56.2°F13.4°C 53.9°F12.2°C 92% Calm Calm 2.0 mph3.2 kmh 29.81 in1009.5 mb 0.01 in0.3 mm 0.00 in0.0 mm 0.15 in3.8 mm
06:34 PM 56.3°F13.5°C 53.7°F12.1°C 91% 2.0 mph E3.2 kmh E 2.0 mph3.2 kmh 29.81 in1009.5 mb 0.01 in0.3 mm 0.00 in0.0 mm 0.15 in3.8 mm
06:36 PM 56.3°F13.5°C 53.7°F12.1°C 91% 2.0 mph E3.2 kmh E 2.0 mph3.2 kmh 29.81 in1009.5 mb 0.01 in0.3 mm 0.00 in0.0 mm 0.15 in3.8 mm
06:38 PM 56.4°F13.6°C 53.8°F12.1°C 91% 3.0 mph SE4.8 kmh SE 3.0 mph4.8 kmh 29.80 in1009.1 mb 0.01 in0.3 mm 0.00 in0.0 mm 0.15 in3.8 mm
06:40 PM 56.5°F13.6°C 53.9°F12.2°C 91% 3.0 mph SE4.8 kmh SE 5.0 mph8.0 kmh 29.80 in1009.1 mb 0.01 in0.3 mm 0.00 in0.0 mm 0.15 in3.8 mm
06:42 PM 56.5°F13.6°C 54.2°F12.3°C 92% 4.0 mph SE6.4 kmh SE 5.0 mph8.0 kmh 29.80 in1009.1 mb 0.01 in0.3 mm 0.00 in0.0 mm 0.15 in3.8 mm
06:44 PM 56.6°F13.7°C 54.3°F12.4°C 92% 2.0 mph SE3.2 kmh SE 5.0 mph8.0 kmh 29.80 in1009.1 mb 0.01 in0.3 mm 0.00 in0.0 mm 0.15 in3.8 mm
06:46 PM 56.7°F13.7°C 54.4°F12.4°C 92% 4.0 mph SE6.4 kmh SE 5.0 mph8.0 kmh 29.80 in1009.1 mb 0.01 in0.3 mm 0.00 in0.0 mm 0.15 in3.8 mm
06:48 PM 56.7°F13.7°C 54.4°F12.4°C 92% 4.0 mph S6.4 kmh S 5.0 mph8.0 kmh 29.80 in1009.1 mb 0.01 in0.3 mm 0.00 in0.0 mm 0.15 in3.8 mm
06:50 PM 56.8°F13.8°C 54.5°F12.5°C 92% 4.0 mph SSE6.4 kmh SSE 6.0 mph9.7 kmh 29.80 in1009.1 mb 0.01 in0.3 mm 0.00 in0.0 mm 0.15 in3.8 mm
06:52 PM 56.8°F13.8°C 54.2°F12.3°C 91% 5.0 mph SSE8.0 kmh SSE 6.0 mph9.7 kmh 29.80 in1009.1 mb 0.01 in0.3 mm 0.00 in0.0 mm 0.15 in3.8 mm
06:54 PM 56.9°F13.8°C 54.3°F12.4°C 91% 5.0 mph SE8.0 kmh SE 6.0 mph9.7 kmh 29.79 in1008.8 mb 0.01 in0.3 mm 0.00 in0.0 mm 0.15 in3.8 mm
06:56 PM 56.9°F13.8°C 54.3°F12.4°C 91% 3.0 mph SSE4.8 kmh SSE 7.0 mph11.3 kmh 29.79 in1008.8 mb 0.01 in0.3 mm 0.00 in0.0 mm 0.15 in3.8 mm
06:58 PM 56.9°F13.8°C 54.3°F12.4°C 91% 4.0 mph SSE6.4 kmh SSE 8.0 mph12.9 kmh 29.79 in1008.8 mb 0.01 in0.3 mm 0.00 in0.0 mm 0.15 in3.8 mm
07:00 PM 57.0°F13.9°C 54.4°F12.4°C 91% 4.0 mph S6.4 kmh S 8.0 mph12.9 kmh 29.79 in1008.8 mb 0.01 in0.3 mm 0.00 in0.0 mm 0.15 in3.8 mm
07:02 PM 57.2°F14.0°C 54.6°F12.6°C 91% 3.0 mph S4.8 kmh S 8.0 mph12.9 kmh 29.79 in1008.8 mb 0.01 in0.3 mm 0.00 in0.0 mm 0.15 in3.8 mm
07:04 PM 57.2°F14.0°C 54.9°F12.7°C 92% 2.0 mph SSE3.2 kmh SSE 7.0 mph11.3 kmh 29.79 in1008.8 mb 0.01 in0.3 mm 0.00 in0.0 mm 0.15 in3.8 mm
07:06 PM 57.4°F14.1°C 55.1°F12.8°C 92% 2.0 mph SE3.2 kmh SE 10.0 mph16.1 kmh 29.78 in1008.5 mb 0.01 in0.3 mm 0.00 in0.0 mm 0.15 in3.8 mm
07:08 PM 57.6°F14.2°C 55.0°F12.8°C 91% 4.0 mph ESE6.4 kmh ESE 10.0 mph16.1 kmh 29.78 in1008.5 mb 0.01 in0.3 mm 0.00 in0.0 mm 0.15 in3.8 mm
07:10 PM 57.8°F14.3°C 55.5°F13.1°C 92% 4.0 mph SE6.4 kmh SE 10.0 mph16.1 kmh 29.78 in1008.5 mb 0.01 in0.3 mm 0.00 in0.0 mm 0.15 in3.8 mm
07:12 PM 58.0°F14.4°C 55.7°F13.2°C 92% 5.0 mph S8.0 kmh S 10.0 mph16.1 kmh 29.78 in1008.5 mb 0.01 in0.3 mm 0.00 in0.0 mm 0.15 in3.8 mm
07:14 PM 58.2°F14.6°C 55.9°F13.3°C 92% 8.0 mph SE12.9 kmh SE 10.0 mph16.1 kmh 29.78 in1008.5 mb 0.01 in0.3 mm 0.00 in0.0 mm 0.15 in3.8 mm
07:16 PM 58.5°F14.7°C 56.2°F13.4°C 92% 9.0 mph SSE14.5 kmh SSE 10.0 mph16.1 kmh 29.78 in1008.5 mb 0.01 in0.3 mm 0.00 in0.0 mm 0.15 in3.8 mm
07:18 PM 58.8°F14.9°C 56.5°F13.6°C 92% 3.0 mph SE4.8 kmh SE 11.0 mph17.7 kmh 29.78 in1008.5 mb 0.01 in0.3 mm 0.00 in0.0 mm 0.15 in3.8 mm
07:20 PM 59.1°F15.1°C 56.8°F13.8°C 92% 3.0 mph SSE4.8 kmh SSE 11.0 mph17.7 kmh 29.78 in1008.5 mb 0.01 in0.3 mm 0.00 in0.0 mm 0.15 in3.8 mm
07:22 PM 59.3°F15.2°C 57.0°F13.9°C 92% 6.0 mph SSE9.7 kmh SSE 11.0 mph17.7 kmh 29.77 in1008.1 mb 0.01 in0.3 mm 0.00 in0.0 mm 0.15 in3.8 mm
07:24 PM 59.6°F15.3°C 57.3°F14.1°C 92% 13.0 mph SSE20.9 kmh SSE 13.0 mph20.9 kmh 29.78 in1008.5 mb 0.01 in0.3 mm 0.00 in0.0 mm 0.15 in3.8 mm
07:26 PM 59.9°F15.5°C 57.6°F14.2°C 92% 12.0 mph S19.3 kmh S 13.0 mph20.9 kmh 29.77 in1008.1 mb 0.01 in0.3 mm 0.00 in0.0 mm 0.15 in3.8 mm
07:28 PM 60.2°F15.7°C 57.9°F14.4°C 92% 5.0 mph SE8.0 kmh SE 13.0 mph20.9 kmh 29.77 in1008.1 mb 0.01 in0.3 mm 0.00 in0.0 mm 0.15 in3.8 mm
07:30 PM 60.3°F15.7°C 58.0°F14.4°C 92% 6.0 mph SE9.7 kmh SE 13.0 mph20.9 kmh 29.77 in1008.1 mb 0.01 in0.3 mm 0.00 in0.0 mm 0.15 in3.8 mm
07:32 PM 60.6°F15.9°C 58.3°F14.6°C 92% 5.0 mph S8.0 kmh S 15.0 mph24.1 kmh 29.77 in1008.1 mb 0.01 in0.3 mm 0.00 in0.0 mm 0.15 in3.8 mm
07:34 PM 60.6°F15.9°C 58.3°F14.6°C 92% 4.0 mph SE6.4 kmh SE 9.0 mph14.5 kmh 29.77 in1008.1 mb 0.00 in0.0 mm 0.00 in0.0 mm 0.15 in3.8 mm
07:36 PM 60.7°F15.9°C 58.4°F14.7°C 92% 9.0 mph ESE14.5 kmh ESE 9.0 mph14.5 kmh 29.77 in1008.1 mb 0.00 in0.0 mm 0.00 in0.0 mm 0.15 in3.8 mm
07:38 PM 60.8°F16.0°C 58.5°F14.7°C 92% 8.0 mph S12.9 kmh S 15.0 mph24.1 kmh 29.77 in1008.1 mb 0.00 in0.0 mm 0.00 in0.0 mm 0.15 in3.8 mm
07:40 PM 60.8°F16.0°C 58.5°F14.7°C 92% 9.0 mph SE14.5 kmh SE 15.0 mph24.1 kmh 29.78 in1008.5 mb 0.00 in0.0 mm 0.00 in0.0 mm 0.15 in3.8 mm
07:42 PM 60.8°F16.0°C 58.5°F14.7°C 92% 6.0 mph S9.7 kmh S 15.0 mph24.1 kmh 29.78 in1008.5 mb 0.00 in0.0 mm 0.00 in0.0 mm 0.15 in3.8 mm
07:44 PM 60.9°F16.1°C 58.6°F14.8°C 92% 9.0 mph SE14.5 kmh SE 15.0 mph24.1 kmh 29.77 in1008.1 mb 0.00 in0.0 mm 0.00 in0.0 mm 0.15 in3.8 mm
07:46 PM 60.9°F16.1°C 58.6°F14.8°C 92% 5.0 mph SSE8.0 kmh SSE 15.0 mph24.1 kmh 29.77 in1008.1 mb 0.00 in0.0 mm 0.00 in0.0 mm 0.15 in3.8 mm
07:48 PM 61.1°F16.2°C 58.8°F14.9°C 92% 4.0 mph SSE6.4 kmh SSE 15.0 mph24.1 kmh 29.77 in1008.1 mb 0.00 in0.0 mm 0.00 in0.0 mm 0.15 in3.8 mm
07:50 PM 61.1°F16.2°C 58.8°F14.9°C 92% 16.0 mph SE25.7 kmh SE 16.0 mph25.7 kmh 29.77 in1008.1 mb 0.00 in0.0 mm 0.00 in0.0 mm 0.15 in3.8 mm
07:52 PM 61.5°F16.4°C 59.2°F15.1°C 92% 4.0 mph SE6.4 kmh SE 17.0 mph27.4 kmh 29.77 in1008.1 mb 0.00 in0.0 mm 0.00 in0.0 mm 0.15 in3.8 mm
07:54 PM 61.6°F16.4°C 59.3°F15.2°C 92% 13.0 mph S20.9 kmh S 17.0 mph27.4 kmh 29.77 in1008.1 mb 0.00 in0.0 mm 0.00 in0.0 mm 0.15 in3.8 mm
07:56 PM 61.7°F16.5°C 59.4°F15.2°C 92% 12.0 mph SE19.3 kmh SE 17.0 mph27.4 kmh 29.77 in1008.1 mb 0.00 in0.0 mm 0.00 in0.0 mm 0.15 in3.8 mm
07:58 PM 61.9°F16.6°C 59.6°F15.3°C 92% 15.0 mph S24.1 kmh S 17.0 mph27.4 kmh 29.77 in1008.1 mb 0.00 in0.0 mm 0.00 in0.0 mm 0.15 in3.8 mm
08:00 PM 62.0°F16.7°C 59.7°F15.4°C 92% 9.0 mph ESE14.5 kmh ESE 17.0 mph27.4 kmh 29.76 in1007.8 mb 0.00 in0.0 mm 0.00 in0.0 mm 0.15 in3.8 mm
08:02 PM 62.2°F16.8°C 59.9°F15.5°C 92% 7.0 mph S11.3 kmh S 17.0 mph27.4 kmh 29.76 in1007.8 mb 0.00 in0.0 mm 0.00 in0.0 mm 0.15 in3.8 mm
08:04 PM 62.3°F16.8°C 60.0°F15.6°C 92% 5.0 mph S8.0 kmh S 10.0 mph16.1 kmh 29.76 in1007.8 mb 0.00 in0.0 mm 0.00 in0.0 mm 0.15 in3.8 mm
08:06 PM 62.6°F17.0°C 60.3°F15.7°C 92% 7.0 mph S11.3 kmh S 12.0 mph19.3 kmh 29.76 in1007.8 mb 0.00 in0.0 mm 0.00 in0.0 mm 0.15 in3.8 mm
08:08 PM 62.8°F17.1°C 60.5°F15.8°C 92% 16.0 mph SE25.7 kmh SE 16.0 mph25.7 kmh 29.76 in1007.8 mb 0.00 in0.0 mm 0.00 in0.0 mm 0.15 in3.8 mm
08:10 PM 62.9°F17.2°C 60.5°F15.8°C 92% 5.0 mph S8.0 kmh S 16.0 mph25.7 kmh 29.76 in1007.8 mb 0.00 in0.0 mm 0.00 in0.0 mm 0.15 in3.8 mm
08:12 PM 63.1°F17.3°C 60.7°F15.9°C 92% 5.0 mph SSE8.0 kmh SSE 16.0 mph25.7 kmh 29.76 in1007.8 mb 0.00 in0.0 mm 0.00 in0.0 mm 0.15 in3.8 mm
08:14 PM 63.2°F17.3°C 60.8°F16.0°C 92% 7.0 mph SSW11.3 kmh SSW 16.0 mph25.7 kmh 29.76 in1007.8 mb 0.00 in0.0 mm 0.00 in0.0 mm 0.15 in3.8 mm
08:16 PM 63.4°F17.4°C 61.0°F16.1°C 92% 11.0 mph SSE17.7 kmh SSE 16.0 mph25.7 kmh 29.76 in1007.8 mb 0.00 in0.0 mm 0.00 in0.0 mm 0.15 in3.8 mm
08:18 PM 63.8°F17.7°C 61.4°F16.3°C 92% 5.0 mph SSE8.0 kmh SSE 16.0 mph25.7 kmh 29.77 in1008.1 mb 0.00 in0.0 mm 0.00 in0.0 mm 0.15 in3.8 mm
08:20 PM 63.9°F17.7°C 61.5°F16.4°C 92% 7.0 mph S11.3 kmh S 16.0 mph25.7 kmh 29.77 in1008.1 mb 0.00 in0.0 mm 0.00 in0.0 mm 0.15 in3.8 mm
08:22 PM 64.1°F17.8°C 61.7°F16.5°C 92% 8.0 mph S12.9 kmh S 16.0 mph25.7 kmh 29.77 in1008.1 mb 0.00 in0.0 mm 0.00 in0.0 mm 0.15 in3.8 mm
08:24 PM 64.2°F17.9°C 61.8°F16.6°C 92% 6.0 mph S9.7 kmh S 16.0 mph25.7 kmh 29.77 in1008.1 mb 0.00 in0.0 mm 0.00 in0.0 mm 0.15 in3.8 mm
08:26 PM 64.3°F17.9°C 61.9°F16.6°C 92% 8.0 mph S12.9 kmh S 16.0 mph25.7 kmh 29.77 in1008.1 mb 0.00 in0.0 mm 0.00 in0.0 mm 0.15 in3.8 mm
08:28 PM 64.4°F18.0°C 62.0°F16.7°C 92% 7.0 mph SSE11.3 kmh SSE 16.0 mph25.7 kmh 29.78 in1008.5 mb 0.00 in0.0 mm 0.00 in0.0 mm 0.15 in3.8 mm
08:30 PM 64.6°F18.1°C 62.2°F16.8°C 92% 7.0 mph SSE11.3 kmh SSE 16.0 mph25.7 kmh 29.78 in1008.5 mb 0.00 in0.0 mm 0.00 in0.0 mm 0.15 in3.8 mm
08:32 PM 64.7°F18.2°C 62.3°F16.8°C 92% 7.0 mph S11.3 kmh S 16.0 mph25.7 kmh 29.78 in1008.5 mb 0.00 in0.0 mm 0.00 in0.0 mm 0.15 in3.8 mm
08:34 PM 65.0°F18.3°C 62.6°F17.0°C 92% 6.0 mph SSW9.7 kmh SSW 13.0 mph20.9 kmh 29.78 in1008.5 mb 0.00 in0.0 mm 0.00 in0.0 mm 0.15 in3.8 mm
08:36 PM 65.1°F18.4°C 62.7°F17.1°C 92% 9.0 mph S14.5 kmh S 13.0 mph20.9 kmh 29.78 in1008.5 mb 0.00 in0.0 mm 0.00 in0.0 mm 0.15 in3.8 mm
08:38 PM 65.2°F18.4°C 62.8°F17.1°C 92% 2.0 mph SE3.2 kmh SE 13.0 mph20.9 kmh 29.78 in1008.5 mb 0.00 in0.0 mm 0.00 in0.0 mm 0.15 in3.8 mm
08:40 PM 65.3°F18.5°C 62.9°F17.2°C 92% 4.0 mph SSE6.4 kmh SSE 13.0 mph20.9 kmh 29.78 in1008.5 mb 0.00 in0.0 mm 0.00 in0.0 mm 0.15 in3.8 mm
08:42 PM 65.4°F18.6°C 63.0°F17.2°C 92% 8.0 mph S12.9 kmh S 13.0 mph20.9 kmh 29.78 in1008.5 mb 0.00 in0.0 mm 0.00 in0.0 mm 0.15 in3.8 mm
08:44 PM 65.5°F18.6°C 63.1°F17.3°C 92% 8.0 mph SSW12.9 kmh SSW 13.0 mph20.9 kmh 29.78 in1008.5 mb 0.00 in0.0 mm 0.00 in0.0 mm 0.15 in3.8 mm
08:46 PM 65.5°F18.6°C 63.1°F17.3°C 92% 6.0 mph S9.7 kmh S 13.0 mph20.9 kmh 29.78 in1008.5 mb 0.00 in0.0 mm 0.00 in0.0 mm 0.15 in3.8 mm
08:48 PM 65.6°F18.7°C 63.2°F17.3°C 92% 9.0 mph SSW14.5 kmh SSW 13.0 mph20.9 kmh 29.78 in1008.5 mb 0.00 in0.0 mm 0.00 in0.0 mm 0.15 in3.8 mm
08:50 PM 65.6°F18.7°C 63.2°F17.3°C 92% 6.0 mph SW9.7 kmh SW 13.0 mph20.9 kmh 29.78 in1008.5 mb 0.00 in0.0 mm 0.00 in0.0 mm 0.15 in3.8 mm
08:52 PM 65.8°F18.8°C 63.4°F17.4°C 92% 15.0 mph SSE24.1 kmh SSE 15.0 mph24.1 kmh 29.78 in1008.5 mb 0.00 in0.0 mm 0.00 in0.0 mm 0.15 in3.8 mm
08:54 PM 65.8°F18.8°C 63.4°F17.4°C 92% 7.0 mph SSW11.3 kmh SSW 15.0 mph24.1 kmh 29.78 in1008.5 mb 0.00 in0.0 mm 0.00 in0.0 mm 0.15 in3.8 mm
08:56 PM 65.9°F18.8°C 63.5°F17.5°C 92% 11.0 mph S17.7 kmh S 19.0 mph30.6 kmh 29.78 in1008.5 mb 0.00 in0.0 mm 0.00 in0.0 mm 0.15 in3.8 mm
08:58 PM 65.9°F18.8°C 63.5°F17.5°C 92% 12.0 mph S19.3 kmh S 19.0 mph30.6 kmh 29.78 in1008.5 mb 0.00 in0.0 mm 0.00 in0.0 mm 0.15 in3.8 mm
09:00 PM 66.0°F18.9°C 63.6°F17.6°C 92% 7.0 mph SSW11.3 kmh SSW 19.0 mph30.6 kmh 29.78 in1008.5 mb 0.00 in0.0 mm 0.00 in0.0 mm 0.15 in3.8 mm
09:02 PM 65.8°F18.8°C 63.4°F17.4°C 92% 4.0 mph S6.4 kmh S 19.0 mph30.6 kmh 29.78 in1008.5 mb 0.00 in0.0 mm 0.00 in0.0 mm 0.15 in3.8 mm
09:04 PM 65.7°F18.7°C 63.3°F17.4°C 92% 5.0 mph S8.0 kmh S 12.0 mph19.3 kmh 29.78 in1008.5 mb 0.00 in0.0 mm 0.00 in0.0 mm 0.15 in3.8 mm
09:06 PM 65.6°F18.7°C 63.2°F17.3°C 92% 9.0 mph S14.5 kmh S 15.0 mph24.1 kmh 29.78 in1008.5 mb 0.00 in0.0 mm 0.00 in0.0 mm 0.15 in3.8 mm
09:08 PM 65.6°F18.7°C 63.2°F17.3°C 92% 5.0 mph S8.0 kmh S 15.0 mph24.1 kmh 29.78 in1008.5 mb 0.00 in0.0 mm 0.00 in0.0 mm 0.15 in3.8 mm
09:10 PM 65.6°F18.7°C 63.2°F17.3°C 92% 4.0 mph SSW6.4 kmh SSW 15.0 mph24.1 kmh 29.78 in1008.5 mb 0.00 in0.0 mm 0.00 in0.0 mm 0.15 in3.8 mm
09:12 PM 65.6°F18.7°C 63.2°F17.3°C 92% 12.0 mph SSE19.3 kmh SSE 15.0 mph24.1 kmh 29.77 in1008.1 mb 0.00 in0.0 mm 0.00 in0.0 mm 0.15 in3.8 mm
09:14 PM 65.7°F18.7°C 63.3°F17.4°C 92% 11.0 mph S17.7 kmh S 16.0 mph25.7 kmh 29.78 in1008.5 mb 0.00 in0.0 mm 0.00 in0.0 mm 0.15 in3.8 mm
09:16 PM 65.7°F18.7°C 63.3°F17.4°C 92% 14.0 mph S22.5 kmh S 16.0 mph25.7 kmh 29.78 in1008.5 mb 0.00 in0.0 mm 0.00 in0.0 mm 0.15 in3.8 mm
09:18 PM 65.8°F18.8°C 63.4°F17.4°C 92% 7.0 mph S11.3 kmh S 16.0 mph25.7 kmh 29.77 in1008.1 mb 0.00 in0.0 mm 0.00 in0.0 mm 0.15 in3.8 mm
09:20 PM 65.9°F18.8°C 63.5°F17.5°C 92% 6.0 mph S9.7 kmh S 16.0 mph25.7 kmh 29.77 in1008.1 mb 0.00 in0.0 mm 0.00 in0.0 mm 0.15 in3.8 mm
09:22 PM 65.9°F18.8°C 63.5°F17.5°C 92% 8.0 mph S12.9 kmh S 16.0 mph25.7 kmh 29.77 in1008.1 mb 0.00 in0.0 mm 0.00 in0.0 mm 0.15 in3.8 mm
09:24 PM 66.0°F18.9°C 63.6°F17.6°C 92% 9.0 mph SSE14.5 kmh SSE 16.0 mph25.7 kmh 29.77 in1008.1 mb 0.00 in0.0 mm 0.00 in0.0 mm 0.15 in3.8 mm
09:26 PM 66.0°F18.9°C 63.6°F17.6°C 92% 12.0 mph S19.3 kmh S 16.0 mph25.7 kmh 29.77 in1008.1 mb 0.00 in0.0 mm 0.00 in0.0 mm 0.15 in3.8 mm
09:28 PM 66.1°F18.9°C 63.7°F17.6°C 92% 14.0 mph S22.5 kmh S 16.0 mph25.7 kmh 29.77 in1008.1 mb 0.00 in0.0 mm 0.00 in0.0 mm 0.15 in3.8 mm
09:30 PM 66.1°F18.9°C 63.7°F17.6°C 92% 16.0 mph SSE25.7 kmh SSE 19.0 mph30.6 kmh 29.77 in1008.1 mb 0.00 in0.0 mm 0.00 in0.0 mm 0.15 in3.8 mm
09:32 PM 66.2°F19.0°C 63.8°F17.7°C 92% 14.0 mph S22.5 kmh S 19.0 mph30.6 kmh 29.77 in1008.1 mb 0.00 in0.0 mm 0.00 in0.0 mm 0.15 in3.8 mm
09:34 PM 66.3°F19.1°C 63.9°F17.7°C 92% 11.0 mph S17.7 kmh S 25.0 mph40.2 kmh 29.77 in1008.1 mb 0.00 in0.0 mm 0.00 in0.0 mm 0.15 in3.8 mm
09:36 PM 66.3°F19.1°C 63.9°F17.7°C 92% 11.0 mph S17.7 kmh S 25.0 mph40.2 kmh 29.77 in1008.1 mb 0.00 in0.0 mm 0.00 in0.0 mm 0.15 in3.8 mm
09:38 PM 66.3°F19.1°C 63.9°F17.7°C 92% 11.0 mph S17.7 kmh S 25.0 mph40.2 kmh 29.77 in1008.1 mb 0.00 in0.0 mm 0.00 in0.0 mm 0.15 in3.8 mm
09:40 PM 66.4°F19.1°C 64.0°F17.8°C 92% 8.0 mph S12.9 kmh S 25.0 mph40.2 kmh 29.77 in1008.1 mb 0.00 in0.0 mm 0.00 in0.0 mm 0.15 in3.8 mm
09:42 PM 66.3°F19.1°C 63.9°F17.7°C 92% 12.0 mph S19.3 kmh S 25.0 mph40.2 kmh 29.77 in1008.1 mb 0.00 in0.0 mm 0.00 in0.0 mm 0.15 in3.8 mm
09:43 PM 66.3°F19.1°C 63.9°F17.7°C 92% 10.0 mph S16.1 kmh S 25.0 mph40.2 kmh 29.77 in1008.1 mb 0.00 in0.0 mm 0.00 in0.0 mm 0.15 in3.8 mm
09:46 PM 66.4°F19.1°C 63.7°F17.6°C 91% 4.0 mph SSE6.4 kmh SSE 25.0 mph40.2 kmh 29.76 in1007.8 mb 0.00 in0.0 mm 0.00 in0.0 mm 0.15 in3.8 mm
09:48 PM 66.4°F19.1°C 63.7°F17.6°C 91% 10.0 mph S16.1 kmh S 25.0 mph40.2 kmh 29.76 in1007.8 mb 0.00 in0.0 mm 0.00 in0.0 mm 0.15 in3.8 mm
09:49 PM 66.5°F19.2°C 63.8°F17.7°C 91% 8.0 mph SSE12.9 kmh SSE 25.0 mph40.2 kmh 29.76 in1007.8 mb 0.00 in0.0 mm 0.00 in0.0 mm 0.15 in3.8 mm
09:52 PM 66.6°F19.2°C 63.9°F17.7°C 91% 14.0 mph S22.5 kmh S 25.0 mph40.2 kmh 29.76 in1007.8 mb 0.00 in0.0 mm 0.00 in0.0 mm 0.15 in3.8 mm
09:54 PM 66.6°F19.2°C 63.9°F17.7°C 91% 9.0 mph S14.5 kmh S 25.0 mph40.2 kmh 29.76 in1007.8 mb 0.00 in0.0 mm 0.00 in0.0 mm 0.15 in3.8 mm
09:56 PM 66.5°F19.2°C 63.8°F17.7°C 91% 15.0 mph S24.1 kmh S 25.0 mph40.2 kmh 29.76 in1007.8 mb 0.00 in0.0 mm 0.00 in0.0 mm 0.15 in3.8 mm
09:58 PM 66.6°F19.2°C 63.9°F17.7°C 91% 9.0 mph SE14.5 kmh SE 25.0 mph40.2 kmh 29.76 in1007.8 mb 0.00 in0.0 mm 0.00 in0.0 mm 0.15 in3.8 mm
10:00 PM 66.6°F19.2°C 63.9°F17.7°C 91% 20.0 mph S32.2 kmh S 25.0 mph40.2 kmh 29.76 in1007.8 mb 0.00 in0.0 mm 0.00 in0.0 mm 0.15 in3.8 mm
10:02 PM 66.7°F19.3°C 64.3°F17.9°C 92% 21.0 mph S33.8 kmh S 25.0 mph40.2 kmh 29.76 in1007.8 mb 0.00 in0.0 mm 0.00 in0.0 mm 0.15 in3.8 mm
10:04 PM 66.7°F19.3°C 64.3°F17.9°C 92% 17.0 mph SE27.4 kmh SE 19.0 mph30.6 kmh 29.76 in1007.8 mb 0.00 in0.0 mm 0.00 in0.0 mm 0.15 in3.8 mm
10:06 PM 66.7°F19.3°C 64.3°F17.9°C 92% 8.0 mph S12.9 kmh S 19.0 mph30.6 kmh 29.76 in1007.8 mb 0.00 in0.0 mm 0.00 in0.0 mm 0.15 in3.8 mm
10:08 PM 66.7°F19.3°C 64.3°F17.9°C 92% 12.0 mph SSW19.3 kmh SSW 19.0 mph30.6 kmh 29.76 in1007.8 mb 0.00 in0.0 mm 0.00 in0.0 mm 0.15 in3.8 mm
10:10 PM 66.7°F19.3°C 64.3°F17.9°C 92% 13.0 mph S20.9 kmh S 19.0 mph30.6 kmh 29.76 in1007.8 mb 0.00 in0.0 mm 0.00 in0.0 mm 0.15 in3.8 mm
10:12 PM 66.7°F19.3°C 64.3°F17.9°C 92% 9.0 mph S14.5 kmh S 19.0 mph30.6 kmh 29.76 in1007.8 mb 0.00 in0.0 mm 0.00 in0.0 mm 0.15 in3.8 mm
10:14 PM 66.8°F19.3°C 64.4°F18.0°C 92% 10.0 mph S16.1 kmh S 19.0 mph30.6 kmh 29.76 in1007.8 mb 0.00 in0.0 mm 0.00 in0.0 mm 0.15 in3.8 mm
10:16 PM 66.8°F19.3°C 64.1°F17.8°C 91% 17.0 mph S27.4 kmh S 20.0 mph32.2 kmh 29.77 in1008.1 mb 0.00 in0.0 mm 0.00 in0.0 mm 0.15 in3.8 mm
10:18 PM 66.9°F19.4°C 64.5°F18.1°C 92% 5.0 mph S8.0 kmh S 20.0 mph32.2 kmh 29.76 in1007.8 mb 0.00 in0.0 mm 0.00 in0.0 mm 0.15 in3.8 mm
10:20 PM 66.8°F19.3°C 64.1°F17.8°C 91% 9.0 mph SSE14.5 kmh SSE 20.0 mph32.2 kmh 29.76 in1007.8 mb 0.00 in0.0 mm 0.00 in0.0 mm 0.15 in3.8 mm
10:22 PM 66.9°F19.4°C 64.2°F17.9°C 91% 15.0 mph SE24.1 kmh SE 20.0 mph32.2 kmh 29.76 in1007.8 mb 0.00 in0.0 mm 0.00 in0.0 mm 0.15 in3.8 mm
10:24 PM 66.9°F19.4°C 64.2°F17.9°C 91% 13.0 mph S20.9 kmh S 20.0 mph32.2 kmh 29.76 in1007.8 mb 0.00 in0.0 mm 0.00 in0.0 mm 0.15 in3.8 mm
10:26 PM 66.9°F19.4°C 64.2°F17.9°C 91% 4.0 mph SW6.4 kmh SW 20.0 mph32.2 kmh 29.76 in1007.8 mb 0.00 in0.0 mm 0.00 in0.0 mm 0.15 in3.8 mm
10:28 PM 67.0°F19.4°C 64.3°F17.9°C 91% 9.0 mph S14.5 kmh S 20.0 mph32.2 kmh 29.76 in1007.8 mb 0.00 in0.0 mm 0.00 in0.0 mm 0.15 in3.8 mm
10:30 PM 67.0°F19.4°C 64.3°F17.9°C 91% 12.0 mph S19.3 kmh S 20.0 mph32.2 kmh 29.76 in1007.8 mb 0.00 in0.0 mm 0.00 in0.0 mm 0.15 in3.8 mm
10:32 PM 67.1°F19.5°C 64.4°F18.0°C 91% 10.0 mph SE16.1 kmh SE 20.0 mph32.2 kmh 29.76 in1007.8 mb 0.00 in0.0 mm 0.00 in0.0 mm 0.15 in3.8 mm
10:34 PM 67.1°F19.5°C 64.4°F18.0°C 91% 6.0 mph S9.7 kmh S 12.0 mph19.3 kmh 29.76 in1007.8 mb 0.00 in0.0 mm 0.00 in0.0 mm 0.15 in3.8 mm
10:36 PM 67.1°F19.5°C 64.4°F18.0°C 91% 7.0 mph S11.3 kmh S 13.0 mph20.9 kmh 29.76 in1007.8 mb 0.00 in0.0 mm 0.00 in0.0 mm 0.15 in3.8 mm
10:38 PM 67.2°F19.6°C 64.5°F18.1°C 91% 11.0 mph S17.7 kmh S 13.0 mph20.9 kmh 29.76 in1007.8 mb 0.00 in0.0 mm 0.00 in0.0 mm 0.15 in3.8 mm
10:40 PM 67.2°F19.6°C 64.5°F18.1°C 91% 6.0 mph SSE9.7 kmh SSE 13.0 mph20.9 kmh 29.75 in1007.5 mb 0.00 in0.0 mm 0.00 in0.0 mm 0.15 in3.8 mm
10:42 PM 67.2°F19.6°C 64.5°F18.1°C 91% 10.0 mph S16.1 kmh S 13.0 mph20.9 kmh 29.75 in1007.5 mb 0.00 in0.0 mm 0.00 in0.0 mm 0.15 in3.8 mm
10:44 PM 67.3°F19.6°C 64.6°F18.1°C 91% 16.0 mph SSW25.7 kmh SSW 17.0 mph27.4 kmh 29.75 in1007.5 mb 0.00 in0.0 mm 0.00 in0.0 mm 0.15 in3.8 mm
10:46 PM 67.5°F19.7°C 64.8°F18.2°C 91% 8.0 mph S12.9 kmh S 17.0 mph27.4 kmh 29.75 in1007.5 mb 0.00 in0.0 mm 0.00 in0.0 mm 0.15 in3.8 mm
10:48 PM 67.6°F19.8°C 64.9°F18.3°C 91% 11.0 mph S17.7 kmh S 20.0 mph32.2 kmh 29.75 in1007.5 mb 0.00 in0.0 mm 0.00 in0.0 mm 0.15 in3.8 mm
10:50 PM 67.7°F19.8°C 65.0°F18.3°C 91% 12.0 mph S19.3 kmh S 21.0 mph33.8 kmh 29.75 in1007.5 mb 0.00 in0.0 mm 0.00 in0.0 mm 0.15 in3.8 mm
10:52 PM 67.8°F19.9°C 65.1°F18.4°C 91% 10.0 mph SSW16.1 kmh SSW 21.0 mph33.8 kmh 29.75 in1007.5 mb 0.00 in0.0 mm 0.00 in0.0 mm 0.15 in3.8 mm
10:54 PM 67.9°F19.9°C 65.2°F18.4°C 91% 12.0 mph S19.3 kmh S 21.0 mph33.8 kmh 29.75 in1007.5 mb 0.00 in0.0 mm 0.00 in0.0 mm 0.15 in3.8 mm
10:56 PM 68.0°F20.0°C 65.3°F18.5°C 91% 7.0 mph SSW11.3 kmh SSW 21.0 mph33.8 kmh 29.75 in1007.5 mb 0.00 in0.0 mm 0.00 in0.0 mm 0.15 in3.8 mm
10:58 PM 68.0°F20.0°C 65.3°F18.5°C 91% 11.0 mph S17.7 kmh S 23.0 mph37.0 kmh 29.74 in1007.1 mb 0.00 in0.0 mm 0.00 in0.0 mm 0.15 in3.8 mm
11:00 PM 68.1°F20.1°C 65.4°F18.6°C 91% 12.0 mph SSE19.3 kmh SSE 23.0 mph37.0 kmh 29.74 in1007.1 mb 0.00 in0.0 mm 0.00 in0.0 mm 0.15 in3.8 mm
11:02 PM 68.2°F20.1°C 65.5°F18.6°C 91% 9.0 mph SSE14.5 kmh SSE 23.0 mph37.0 kmh 29.74 in1007.1 mb 0.00 in0.0 mm 0.00 in0.0 mm 0.15 in3.8 mm
11:04 PM 68.2°F20.1°C 65.5°F18.6°C 91% 12.0 mph SSE19.3 kmh SSE 15.0 mph24.1 kmh 29.74 in1007.1 mb 0.00 in0.0 mm 0.00 in0.0 mm 0.15 in3.8 mm
11:06 PM 68.3°F20.2°C 65.6°F18.7°C 91% 15.0 mph S24.1 kmh S 19.0 mph30.6 kmh 29.74 in1007.1 mb 0.00 in0.0 mm 0.00 in0.0 mm 0.15 in3.8 mm
11:08 PM 68.4°F20.2°C 65.7°F18.7°C 91% 6.0 mph SSW9.7 kmh SSW 19.0 mph30.6 kmh 29.74 in1007.1 mb 0.00 in0.0 mm 0.00 in0.0 mm 0.15 in3.8 mm
11:10 PM 68.5°F20.3°C 65.8°F18.8°C 91% 9.0 mph S14.5 kmh S 21.0 mph33.8 kmh 29.74 in1007.1 mb 0.00 in0.0 mm 0.00 in0.0 mm 0.15 in3.8 mm
11:12 PM 68.6°F20.3°C 65.9°F18.8°C 91% 10.0 mph ESE16.1 kmh ESE 21.0 mph33.8 kmh 29.74 in1007.1 mb 0.00 in0.0 mm 0.00 in0.0 mm 0.15 in3.8 mm
11:14 PM 68.6°F20.3°C 65.9°F18.8°C 91% 11.0 mph S17.7 kmh S 21.0 mph33.8 kmh 29.74 in1007.1 mb 0.00 in0.0 mm 0.00 in0.0 mm 0.15 in3.8 mm
11:16 PM 68.8°F20.4°C 66.1°F18.9°C 91% 7.0 mph SSE11.3 kmh SSE 24.0 mph38.6 kmh 29.74 in1007.1 mb 0.00 in0.0 mm 0.00 in0.0 mm 0.15 in3.8 mm
11:18 PM 68.8°F20.4°C 66.1°F18.9°C 91% 12.0 mph S19.3 kmh S 24.0 mph38.6 kmh 29.73 in1006.8 mb 0.00 in0.0 mm 0.00 in0.0 mm 0.15 in3.8 mm
11:20 PM 68.8°F20.4°C 66.1°F18.9°C 91% 5.0 mph SSE8.0 kmh SSE 24.0 mph38.6 kmh 29.73 in1006.8 mb 0.00 in0.0 mm 0.00 in0.0 mm 0.15 in3.8 mm
11:22 PM 68.8°F20.4°C 66.1°F18.9°C 91% 5.0 mph SW8.0 kmh SW 24.0 mph38.6 kmh 29.73 in1006.8 mb 0.00 in0.0 mm 0.00 in0.0 mm 0.15 in3.8 mm
11:24 PM 68.9°F20.5°C 66.2°F19.0°C 91% 16.0 mph SSE25.7 kmh SSE 24.0 mph38.6 kmh 29.73 in1006.8 mb 0.00 in0.0 mm 0.00 in0.0 mm 0.15 in3.8 mm
11:26 PM 68.9°F20.5°C 66.2°F19.0°C 91% 10.0 mph S16.1 kmh S 24.0 mph38.6 kmh 29.73 in1006.8 mb 0.00 in0.0 mm 0.00 in0.0 mm 0.15 in3.8 mm
11:28 PM 69.0°F20.6°C 66.3°F19.1°C 91% 10.0 mph S16.1 kmh S 24.0 mph38.6 kmh 29.73 in1006.8 mb 0.00 in0.0 mm 0.00 in0.0 mm 0.15 in3.8 mm
11:30 PM 69.0°F20.6°C 66.0°F18.9°C 90% 11.0 mph SSE17.7 kmh SSE 24.0 mph38.6 kmh 29.73 in1006.8 mb 0.00 in0.0 mm 0.00 in0.0 mm 0.15 in3.8 mm
11:32 PM 68.9°F20.5°C 65.9°F18.8°C 90% 11.0 mph SE17.7 kmh SE 24.0 mph38.6 kmh 29.72 in1006.4 mb 0.00 in0.0 mm 0.00 in0.0 mm 0.15 in3.8 mm
11:34 PM 69.0°F20.6°C 66.0°F18.9°C 90% 22.0 mph SE35.4 kmh SE 22.0 mph35.4 kmh 29.72 in1006.4 mb 0.00 in0.0 mm 0.00 in0.0 mm 0.15 in3.8 mm
11:36 PM 69.1°F20.6°C 66.4°F19.1°C 91% 22.0 mph SSW35.4 kmh SSW 26.0 mph41.8 kmh 29.72 in1006.4 mb 0.00 in0.0 mm 0.00 in0.0 mm 0.15 in3.8 mm
11:38 PM 69.1°F20.6°C 66.1°F18.9°C 90% 18.0 mph SSW29.0 kmh SSW 26.0 mph41.8 kmh 29.72 in1006.4 mb 0.00 in0.0 mm 0.00 in0.0 mm 0.15 in3.8 mm
11:40 PM 69.2°F20.7°C 66.2°F19.0°C 90% 12.0 mph S19.3 kmh S 26.0 mph41.8 kmh 29.73 in1006.8 mb 0.00 in0.0 mm 0.00 in0.0 mm 0.15 in3.8 mm
11:42 PM 69.2°F20.7°C 66.2°F19.0°C 90% 9.0 mph S14.5 kmh S 26.0 mph41.8 kmh 29.72 in1006.4 mb 0.00 in0.0 mm 0.00 in0.0 mm 0.15 in3.8 mm
11:44 PM 69.3°F20.7°C 66.3°F19.1°C 90% 14.0 mph SSE22.5 kmh SSE 26.0 mph41.8 kmh 29.72 in1006.4 mb 0.00 in0.0 mm 0.00 in0.0 mm 0.15 in3.8 mm
11:46 PM 69.3°F20.7°C 66.3°F19.1°C 90% 3.0 mph SSE4.8 kmh SSE 26.0 mph41.8 kmh 29.72 in1006.4 mb 0.00 in0.0 mm 0.00 in0.0 mm 0.15 in3.8 mm
11:48 PM 69.2°F20.7°C 66.2°F19.0°C 90% 14.0 mph S22.5 kmh S 26.0 mph41.8 kmh 29.72 in1006.4 mb 0.00 in0.0 mm 0.00 in0.0 mm 0.15 in3.8 mm
11:50 PM 69.2°F20.7°C 66.2°F19.0°C 90% 13.0 mph SW20.9 kmh SW 26.0 mph41.8 kmh 29.72 in1006.4 mb 0.00 in0.0 mm 0.00 in0.0 mm 0.15 in3.8 mm
11:52 PM 69.2°F20.7°C 66.2°F19.0°C 90% 8.0 mph S12.9 kmh S 26.0 mph41.8 kmh 29.72 in1006.4 mb 0.00 in0.0 mm 0.00 in0.0 mm 0.15 in3.8 mm
11:54 PM 69.3°F20.7°C 66.3°F19.1°C 90% 7.0 mph SE11.3 kmh SE 26.0 mph41.8 kmh 29.72 in1006.4 mb 0.00 in0.0 mm 0.00 in0.0 mm 0.15 in3.8 mm
11:56 PM 69.3°F20.7°C 66.3°F19.1°C 90% 13.0 mph SSE20.9 kmh SSE 26.0 mph41.8 kmh 29.72 in1006.4 mb 0.00 in0.0 mm 0.00 in0.0 mm 0.15 in3.8 mm
11:58 PM 69.3°F20.7°C 66.3°F19.1°C 90% 12.0 mph SSE19.3 kmh SSE 26.0 mph41.8 kmh 29.72 in1006.4 mb 0.00 in0.0 mm 0.00 in0.0 mm 0.15 in3.8 mm